Data for 12/25/2008

Time Sea-Level Adjusted Pressure Absolute Pressure Temperature Relative Humidity Dew Point Precipitation   
(mb) (inHg) (mb) (inHg) (C) (F) (%) (C) (F) (mm) (in)
00:01 1004 29.65 833 24.6 -5.2 22.7 61 -11.7 11 0
00:02 1004 29.65 833 24.6 -5.3 22.5 61 -11.8 10.8 0
00:03 1004 29.65 833 24.6 -5.4 22.3 61 -11.8 10.8 0
00:04 1004 29.65 833 24.6 -5.4 22.3 61 -11.8 10.8 0
00:05 1004 29.65 833 24.6 -5.4 22.2 61 -11.7 10.9 0
00:06 1004 29.65 833 24.6 -5.6 21.8 62 -11.8 10.7 0
00:07 1004 29.65 833 24.6 -5.7 21.7 62 -12 10.5 0
00:08 1004 29.65 833 24.6 -5.7 21.8 62 -11.8 10.8 0
00:09 1004 29.65 833 24.6 -5.7 21.7 61 -12 10.3 0
00:10 1004 29.65 833 24.6 -5.5 22 60 -12.1 10.2 0
00:11 1004 29.65 833 24.6 -5.3 22.5 59 -12.1 10.2 0
00:12 1004 29.65 833 24.6 -5.1 22.8 59 -11.9 10.6 0
00:13 1004 29.65 833 24.6 -5.2 22.7 59 -11.9 10.6 0
00:14 1004 29.65 833 24.6 -5.1 22.8 59 -11.9 10.5 0
00:15 1004 29.65 833 24.6 -5.1 22.8 59 -12 10.4 0
00:16 1004 29.65 833 24.6 -5.1 22.9 59 -11.9 10.5 0
00:17 1004 29.65 833 24.6 -5 22.9 59 -11.9 10.6 0
00:18 1004 29.65 833 24.6 -5 22.9 60 -11.7 10.9 0
00:19 1003 29.62 833 24.6 -5.1 22.9 60 -11.7 10.9 0
00:20 1003 29.62 833 24.6 -5.1 22.8 60 -11.8 10.8 0
00:21 1003 29.62 833 24.6 -5.1 22.8 59 -11.9 10.6 0
00:22 1003 29.62 833 24.6 -5.1 22.8 59 -11.9 10.6 0
00:23 1003 29.62 833 24.6 -5.1 22.9 59 -11.8 10.8 0
00:24 1003 29.62 833 24.6 -5.1 22.8 60 -11.8 10.7 0
00:25 1003 29.62 833 24.6 -5.1 22.8 60 -11.8 10.8 0
00:26 1003 29.62 833 24.6 -5 23 59 -11.8 10.8 0
00:27 1003 29.62 833 24.6 -5 23.1 59 -11.8 10.8 0
00:28 1003 29.62 833 24.6 -5 23.1 59 -11.8 10.8 0
00:29 1003 29.62 833 24.6 -4.9 23.1 58 -11.9 10.6 0
00:30 1003 29.62 833 24.6 -4.8 23.3 58 -11.9 10.5 0
00:31 1003 29.62 833 24.6 -4.7 23.5 57 -12 10.4 0
00:32 1003 29.62 833 24.6 -4.6 23.8 57 -11.8 10.7 0
00:33 1003 29.62 832 24.57 -4.5 23.8 57 -11.8 10.8 0
00:34 1003 29.62 832 24.57 -4.6 23.8 57 -12 10.5 0
00:35 1003 29.62 832 24.57 -4.5 23.9 57 -11.9 10.6 0
00:36 1003 29.62 832 24.57 -4.5 23.9 57 -11.7 10.9 0
00:37 1003 29.62 832 24.57 -4.5 23.9 58 -11.6 11.2 0
00:38 1003 29.62 832 24.57 -4.5 23.9 58 -11.6 11.1 0
00:39 1003 29.62 832 24.57 -4.6 23.8 58 -11.7 10.9 0
00:40 1003 29.62 832 24.57 -4.6 23.7 58 -11.7 10.9 0
00:41 1003 29.62 832 24.57 -4.5 23.9 56 -11.9 10.5 0
00:42 1003 29.62 832 24.57 -4.4 24.1 56 -11.8 10.8 0
00:43 1003 29.62 832 24.57 -4.4 24.1 58 -11.5 11.2 0
00:44 1003 29.62 832 24.57 -4.4 24.1 57 -11.6 11 0
00:45 1003 29.62 832 24.57 -4.4 24 56 -12 10.4 0
00:46 1003 29.62 832 24.57 -4.3 24.2 56 -11.9 10.6 0
00:47 1003 29.62 832 24.57 -4.2 24.5 56 -11.7 10.9 0
00:48 1003 29.62 832 24.57 -4.1 24.6 56 -11.6 11.2 0
00:49 1003 29.62 832 24.57 -3.9 25 58 -11 12.3 0
00:50 1003 29.62 832 24.57 -3.6 25.5 57 -10.9 12.3 0
00:51 1003 29.62 832 24.57 -3.4 25.9 57 -10.7 12.7 0
00:52 1003 29.62 832 24.57 -3.3 26.1 57 -10.6 13 0
00:53 1003 29.62 832 24.57 -3.3 26 58 -10.5 13.1 0
00:54 1003 29.62 832 24.57 -3.3 26.1 55 -11.1 12.1 0
00:55 1003 29.62 832 24.57 -3.1 26.3 54 -11.2 11.9 0
00:56 1003 29.62 832 24.57 -3.1 26.5 54 -11.1 12 0
00:57 1003 29.62 832 24.57 -3 26.7 57 -10.4 13.3 0
00:58 1003 29.62 832 24.57 -3.1 26.5 54 -11.2 11.9 0
00:59 1003 29.62 832 24.57 -3.2 26.2 54 -11.3 11.7 0
01:00 1003 29.62 832 24.57 -3.4 25.9 54 -11.5 11.3 0
01:01 1003 29.62 832 24.57 -3.5 25.7 55 -11.3 11.7 0
01:02 1003 29.62 832 24.57 -3.5 25.6 55 -11.4 11.5 0
01:03 1003 29.62 832 24.57 -3.5 25.6 55 -11.3 11.7 0
01:04 1003 29.62 832 24.57 -3.5 25.6 55 -11.2 11.8 0
01:05 1003 29.62 832 24.57 -3.5 25.6 55 -11.4 11.4 0
01:06 1003 29.62 832 24.57 -3.6 25.6 54 -11.6 11.1 0
01:07 1003 29.62 832 24.57 -3.5 25.7 55 -11.3 11.6 0
01:08 1003 29.62 832 24.57 -3.6 25.6 55 -11.4 11.5 0
01:09 1003 29.62 832 24.57 -3.7 25.4 57 -11.1 12.1 0
01:10 1003 29.62 832 24.57 -3.6 25.5 55 -11.4 11.4 0
01:11 1003 29.62 832 24.57 -3.6 25.6 55 -11.4 11.4 0
01:12 1002 29.59 832 24.57 -3.5 25.7 55 -11.2 11.8 0
01:13 1002 29.59 832 24.57 -3.6 25.6 55 -11.4 11.5 0
01:14 1003 29.62 832 24.57 -3.6 25.5 53 -11.9 10.6 0
01:15 1002 29.59 832 24.57 -3.5 25.7 53 -11.8 10.7 0
01:16 1002 29.59 831 24.54 -3.4 25.9 52 -11.9 10.6 0
01:17 1002 29.59 832 24.57 -3.4 25.9 53 -11.6 11.1 0
01:18 1002 29.59 832 24.57 -3.4 26 52 -11.8 10.8 0
01:19 1002 29.59 831 24.54 -3.4 25.9 53 -11.6 11.1 0
01:20 1002 29.59 831 24.54 -3.4 25.9 54 -11.4 11.5 0
01:21 1002 29.59 831 24.54 -3.4 25.8 55 -11.2 11.9 0
01:22 1002 29.59 831 24.54 -3.5 25.6 56 -11.2 11.8 0
01:23 1002 29.59 831 24.54 -3.6 25.5 55 -11.5 11.3 0
01:24 1002 29.59 831 24.54 -3.6 25.6 56 -11.2 11.8 0
01:25 1002 29.59 831 24.54 -3.6 25.5 57 -11 12.2 0
01:26 1002 29.59 831 24.54 -3.7 25.3 56 -11.3 11.7 0
01:27 1002 29.59 831 24.54 -3.7 25.3 56 -11.3 11.7 0
01:28 1002 29.59 831 24.54 -3.7 25.4 55 -11.4 11.5 0
01:29 1002 29.59 831 24.54 -3.6 25.5 56 -11.2 11.8 0
01:30 1002 29.59 831 24.54 -3.6 25.5 56 -11.2 11.9 0
01:31 1002 29.59 831 24.54 -3.6 25.6 56 -11 12.1 0
01:32 1002 29.59 831 24.54 -3.6 25.5 58 -10.7 12.7 0
01:33 1002 29.59 831 24.54 -3.8 25.2 58 -10.9 12.4 0
01:34 1002 29.59 831 24.54 -3.8 25.2 57 -11 12.2 0
01:35 1001 29.56 831 24.54 -3.4 25.8 49 -12.6 9.4 0
01:36 1001 29.56 831 24.54 -2.7 27.2 49 -12.1 10.3 0
01:37 1001 29.56 831 24.54 -2.4 27.8 53 -10.7 12.8 0
01:38 1002 29.59 831 24.54 -2.7 27.1 55 -10.6 12.9 0
01:39 1002 29.59 831 24.54 -3 26.5 55 -10.8 12.5 0
01:40 1002 29.59 831 24.54 -3.2 26.3 55 -10.9 12.4 0
01:41 1002 29.59 831 24.54 -3.3 26 56 -10.9 12.4 0
01:42 1001 29.56 831 24.54 -3.4 25.9 57 -10.7 12.7 0
01:43 1001 29.56 831 24.54 -3.6 25.6 56 -11 12.1 0
01:44 1001 29.56 830 24.51 -3.6 25.6 57 -10.9 12.5 0
01:45 1001 29.56 830 24.51 -3.6 25.4 57 -11 12.2 0
01:46 1001 29.56 831 24.54 -3.6 25.5 56 -11.1 12.1 0
01:47 1001 29.56 831 24.54 -3.6 25.5 57 -11 12.2 0
01:48 1001 29.56 831 24.54 -3.7 25.4 57 -11 12.2 0
01:49 1001 29.56 831 24.54 -3.7 25.3 57 -11 12.2 0
01:50 1001 29.56 830 24.51 -3.7 25.4 57 -10.9 12.3 0
01:51 1001 29.56 830 24.51 -3.5 25.6 56 -11.1 12.1 0
01:52 1001 29.56 830 24.51 -3.4 25.8 57 -10.7 12.7 0
01:53 1001 29.56 830 24.51 -3.4 25.9 57 -10.7 12.7 0
01:54 1001 29.56 830 24.51 -3.4 25.9 55 -11.2 11.9 0
01:55 1001 29.56 830 24.51 -3.3 26.1 57 -10.6 12.9 0
01:56 1001 29.56 830 24.51 -3.3 26.1 56 -11 12.3 0
01:57 1001 29.56 830 24.51 -3.2 26.2 55 -10.9 12.3 0
01:58 1001 29.56 830 24.51 -3.2 26.3 54 -11.2 11.8 0
01:59 1001 29.56 830 24.51 -3 26.5 53 -11.2 11.8 0
02:00 1001 29.56 831 24.54 -2.9 26.8 53 -11.1 12.1 0
02:01 1001 29.56 831 24.54 -2.8 26.9 54 -11 12.3 0
02:02 1001 29.56 831 24.54 -2.9 26.8 55 -10.7 12.8 0
02:03 1001 29.56 830 24.51 -3 26.6 55 -10.7 12.7 0
02:04 1001 29.56 830 24.51 -3.1 26.4 56 -10.8 12.6 0
02:05 1001 29.56 830 24.51 -3.1 26.4 54 -11.1 12.1 0
02:06 1001 29.56 830 24.51 -3.1 26.5 52 -11.7 10.9 0
02:07 1001 29.56 830 24.51 -2.7 27.1 50 -11.7 10.9 0
02:08 1001 29.56 830 24.51 -2.5 27.5 51 -11.4 11.5 0
02:09 1001 29.56 830 24.51 -2.4 27.6 51 -11.2 11.9 0
02:10 1001 29.56 830 24.51 -2.5 27.5 52 -11.1 12.1 0
02:11 1001 29.56 830 24.51 -2.6 27.4 53 -11 12.3 0
02:12 1001 29.56 830 24.51 -2.7 27.2 54 -10.8 12.5 0
02:13 1001 29.56 830 24.51 -2.7 27.1 53 -11 12.2 0
02:14 1001 29.56 830 24.51 -2.8 27 53 -11 12.1 0
02:15 1001 29.56 830 24.51 -2.7 27.1 54 -10.9 12.4 0
02:16 1001 29.56 830 24.51 -2.8 27 54 -11 12.2 0
02:17 1001 29.56 830 24.51 -2.8 26.9 53 -11.1 12 0
02:18 1001 29.56 830 24.51 -2.8 27 53 -11 12.2 0
02:19 1001 29.56 830 24.51 -2.7 27.1 54 -10.9 12.4 0
02:20 1001 29.56 830 24.51 -2.8 27 56 -10.3 13.4 0
02:21 1001 29.56 830 24.51 -3.1 26.4 56 -10.7 12.8 0
02:22 1001 29.56 830 24.51 -3.3 26.1 57 -10.6 12.9 0
02:23 1001 29.56 830 24.51 -3.4 25.9 57 -10.7 12.7 0
02:24 1001 29.56 830 24.51 -3.5 25.7 57 -10.9 12.4 0
02:25 1001 29.56 830 24.51 -3.5 25.7 57 -10.9 12.4 0
02:26 1001 29.56 830 24.51 -3.5 25.7 57 -10.7 12.7 0
02:27 1001 29.56 830 24.51 -3.5 25.7 58 -10.7 12.7 0
02:28 1001 29.56 830 24.51 -3.5 25.6 56 -11 12.1 0
02:29 1001 29.56 830 24.51 -3.5 25.7 56 -11.1 12 0
02:30 1001 29.56 830 24.51 -3.4 25.9 57 -10.8 12.5 0
02:31 1001 29.56 830 24.51 -3.4 25.8 56 -10.9 12.3 0
02:32 1001 29.56 830 24.51 -3.5 25.8 57 -10.9 12.4 0
02:33 1001 29.56 830 24.51 -3.4 25.8 55 -11.2 11.9 0
02:34 1001 29.56 830 24.51 -3.3 26 53 -11.5 11.3 0
02:35 1001 29.56 830 24.51 -2.9 26.8 49 -12.1 10.3 0
02:36 1001 29.56 830 24.51 -2.4 27.7 48 -12 10.4 0
02:37 1001 29.56 830 24.51 -2.1 28.2 47 -11.9 10.5 0
02:38 1001 29.56 830 24.51 -1.9 28.6 46 -12 10.4 0
02:39 1001 29.56 830 24.51 -1.8 28.7 47 -11.7 11 0
02:40 1001 29.56 830 24.51 -1.8 28.7 49 -11.3 11.7 0
02:41 1001 29.56 830 24.51 -2 28.3 52 -10.7 12.8 0
02:42 1001 29.56 830 24.51 -2.3 27.9 50 -11.3 11.6 0
02:43 1001 29.56 830 24.51 -2.3 27.8 50 -11.3 11.7 0
02:44 1001 29.56 830 24.51 -2.3 27.8 49 -11.7 10.9 0
02:45 1001 29.56 830 24.51 -2 28.5 46 -12.2 10 0
02:46 1001 29.56 830 24.51 -1.5 29.3 44 -12.4 9.7 0
02:47 1001 29.56 830 24.51 -1.2 29.8 45 -11.6 11.1 0
02:48 1001 29.56 830 24.51 -1.3 29.7 47 -11.1 12 0
02:49 1001 29.56 830 24.51 -1.6 29.1 50 -10.8 12.5 0
02:50 1001 29.56 830 24.51 -1.9 28.6 49 -11.2 11.8 0
02:51 1001 29.56 830 24.51 -1.9 28.5 47 -11.7 10.9 0
02:52 1001 29.56 830 24.51 -1.9 28.6 48 -11.6 11.1 0
02:53 1001 29.56 830 24.51 -1.8 28.8 48 -11.5 11.3 0
02:54 1001 29.56 830 24.51 -1.9 28.6 47 -11.6 11.1 0
02:55 1001 29.56 830 24.51 -1.9 28.7 48 -11.5 11.3 0
02:56 1001 29.56 830 24.51 -1.8 28.7 48 -11.4 11.5 0
02:57 1001 29.56 830 24.51 -1.9 28.6 50 -11 12.1 0
02:58 1000 29.53 830 24.51 -2.1 28.2 52 -10.8 12.6 0
02:59 1000 29.53 830 24.51 -2.4 27.8 51 -11.3 11.7 0
03:00 1000 29.53 830 24.51 -2.3 27.8 51 -11.2 11.8 0
03:01 1001 29.56 830 24.51 -2.2 28 49 -11.5 11.4 0
03:02 1001 29.56 830 24.51 -2.2 28.1 49 -11.5 11.3 0
03:03 1001 29.56 830 24.51 -2 28.5 48 -11.6 11.1 0
03:04 1001 29.56 830 24.51 -1.8 28.8 49 -11.1 12.1 0
03:05 1001 29.56 830 24.51 -1.8 28.8 50 -11 12.3 0
03:06 1001 29.56 830 24.51 -1.6 29.1 48 -11.3 11.7 0
03:07 1001 29.56 830 24.51 -1.6 29.2 47 -11.4 11.6 0
03:08 1001 29.56 830 24.51 -1.5 29.4 50 -10.7 12.8 0
03:09 1000 29.53 830 24.51 -1.5 29.3 51 -10.4 13.3 0
03:10 1000 29.53 830 24.51 -1.5 29.2 52 -10 13.9 0
03:11 1000 29.53 830 24.51 -1.6 29 53 -10 14 0
03:12 1000 29.53 829 24.48 -1.7 29 55 -9.6 14.7 0
03:13 1000 29.53 829 24.48 -1.7 28.9 54 -9.9 14.3 0
03:14 1000 29.53 829 24.48 -1.7 28.9 56 -9.3 15.2 0
03:15 1000 29.53 829 24.48 -1.8 28.7 52 -10.5 13 0
03:16 1000 29.53 830 24.51 -1.7 29 54 -9.8 14.4 0
03:17 1000 29.53 829 24.48 -1.6 29.1 53 -9.9 14.2 0
03:18 1000 29.53 829 24.48 -1.6 29.1 55 -9.6 14.7 0
03:19 1000 29.53 829 24.48 -1.7 29 52 -10.3 13.4 0
03:20 1000 29.53 829 24.48 -1.6 29.2 55 -9.6 14.8 0
03:21 1000 29.53 829 24.48 -1.6 29.1 54 -9.6 14.6 0
03:22 1000 29.53 829 24.48 -1.6 29.1 56 -9.2 15.4 0
03:23 1000 29.53 829 24.48 -1.7 29 54 -9.7 14.6 0
03:24 1000 29.53 829 24.48 -1.6 29.2 55 -9.4 15 0
03:25 1000 29.53 829 24.48 -1.6 29.1 56 -9.3 15.3 0
03:26 1000 29.53 829 24.48 -1.7 28.9 57 -9.1 15.5 0
03:27 1000 29.53 829 24.48 -1.8 28.8 59 -8.9 16.1 0
03:28 1000 29.53 829 24.48 -1.9 28.7 56 -9.4 15 0
03:29 1000 29.53 829 24.48 -1.8 28.8 56 -9.4 15 0
03:30 1000 29.53 829 24.48 -1.7 28.9 55 -9.6 14.8 0
03:31 1000 29.53 829 24.48 -1.7 29 58 -8.9 16 0
03:32 1000 29.53 829 24.48 -1.7 28.9 58 -8.8 16.1 0
03:33 1000 29.53 829 24.48 -1.7 29 58 -8.9 16 0
03:34 1000 29.53 829 24.48 -1.9 28.7 57 -9.3 15.3 0
03:35 1000 29.53 829 24.48 -1.8 28.7 59 -8.9 15.9 0
03:36 1000 29.53 829 24.48 -1.9 28.6 58 -9.1 15.5 0
03:37 1000 29.53 829 24.48 -1.9 28.6 57 -9.4 15.1 0
03:38 1000 29.53 829 24.48 -1.8 28.7 56 -9.5 15 0
03:39 1000 29.53 829 24.48 -1.8 28.7 57 -9.2 15.4 0
03:40 1000 29.53 829 24.48 -1.8 28.7 54 -10 14 0
03:41 1000 29.53 829 24.48 -1.6 29.1 53 -9.9 14.2 0
03:42 1000 29.53 829 24.48 -1.6 29.1 56 -9.3 15.2 0
03:43 1000 29.53 829 24.48 -1.6 29.1 56 -9.2 15.5 0
03:44 1000 29.53 829 24.48 -1.6 29.1 56 -9.3 15.3 0
03:45 1000 29.53 829 24.48 -1.7 28.9 57 -9.2 15.4 0
03:46 1000 29.53 829 24.48 -1.9 28.5 54 -10.1 13.8 0
03:47 1000 29.53 829 24.48 -2.1 28.3 54 -10.2 13.7 0
03:48 1000 29.53 829 24.48 -2.1 28.2 55 -10 14 0
03:49 1000 29.53 829 24.48 -2.2 28 54 -10.4 13.2 0
03:50 1000 29.53 829 24.48 -2.1 28.2 54 -10.1 13.8 0
03:51 1000 29.53 829 24.48 -2.1 28.2 53 -10.5 13 0
03:52 1000 29.53 829 24.48 -2 28.4 51 -10.9 12.4 0
03:53 1000 29.53 829 24.48 -1.8 28.7 52 -10.4 13.3 0
03:54 1000 29.53 829 24.48 -1.9 28.5 51 -10.7 12.7 0
03:55 1000 29.53 829 24.48 -2 28.4 53 -10.4 13.3 0
03:56 1000 29.53 829 24.48 -2.1 28.2 54 -10.1 13.7 0
03:57 1000 29.53 829 24.48 -2 28.3 53 -10.5 13.2 0
03:58 1000 29.53 829 24.48 -1.7 28.9 52 -10.3 13.5 0
03:59 1000 29.53 829 24.48 -1.6 29.2 54 -9.8 14.4 0
04:00 999 29.5 829 24.48 -1.5 29.3 55 -9.4 15.1 0
04:01 999 29.5 829 24.48 -1.6 29.2 52 -10.2 13.6 0
04:02 999 29.5 829 24.48 -1.5 29.3 52 -10.1 13.8 0
04:03 999 29.5 829 24.48 -1.5 29.3 52 -10.2 13.6 0
04:04 999 29.5 828 24.45 -1.6 29.1 52 -10.2 13.7 0
04:05 999 29.5 829 24.48 -1.7 28.9 52 -10.4 13.3 0
04:06 999 29.5 829 24.48 -1.9 28.7 54 -10 14.1 0
04:07 999 29.5 829 24.48 -2.1 28.3 55 -10.1 13.9 0
04:08 999 29.5 829 24.48 -2.2 28 55 -10 14 0
04:09 999 29.5 828 24.45 -2.5 27.6 57 -9.9 14.2 0
04:10 999 29.5 828 24.45 -2.8 26.9 58 -9.9 14.2 0
04:11 999 29.5 828 24.45 -3.1 26.5 60 -9.9 14.2 0
04:12 999 29.5 828 24.45 -3.2 26.2 60 -10 14.1 0
04:13 999 29.5 828 24.45 -3.3 26.1 61 -9.8 14.4 0
04:14 999 29.5 828 24.45 -3.4 25.9 62 -9.7 14.5 0
04:15 999 29.5 828 24.45 -3.5 25.7 61 -9.9 14.2 0
04:16 999 29.5 828 24.45 -3.5 25.8 59 -10.3 13.4 0
04:17 999 29.5 828 24.45 -3.3 26 60 -10 14 0
04:18 999 29.5 828 24.45 -3.3 26.1 60 -10 14 0
04:19 999 29.5 828 24.45 -3.3 26 61 -9.8 14.4 0
04:20 999 29.5 828 24.45 -3.4 25.9 60 -10.1 13.8 0
04:21 999 29.5 828 24.45 -3.4 25.9 60 -10 14.1 0
04:22 999 29.5 828 24.45 -3.4 25.9 60 -10 14 0
04:23 999 29.5 828 24.45 -3.4 25.9 61 -9.9 14.2 0
04:24 999 29.5 828 24.45 -3.3 26 58 -10.6 13 0
04:25 999 29.5 828 24.45 -3.1 26.4 59 -9.9 14.1 0
04:26 999 29.5 828 24.45 -3.1 26.4 60 -9.8 14.4 0
04:27 999 29.5 828 24.45 -3.2 26.3 59 -10 13.9 0
04:28 999 29.5 828 24.45 -3.2 26.2 60 -10 14.1 0
04:29 999 29.5 828 24.45 -3.2 26.3 58 -10.2 13.6 0
04:30 999 29.5 828 24.45 -3 26.5 58 -10.2 13.7 0
04:31 999 29.5 828 24.45 -3 26.5 59 -10.1 13.9 0
04:32 999 29.5 828 24.45 -3.1 26.5 59 -10 13.9 0
04:33 999 29.5 828 24.45 -3.1 26.5 58 -10.2 13.7 0
04:34 999 29.5 828 24.45 -3 26.6 59 -9.9 14.2 0
04:35 999 29.5 828 24.45 -3.1 26.4 60 -9.7 14.5 0
04:36 999 29.5 828 24.45 -3.2 26.2 60 -9.9 14.2 0
04:37 999 29.5 828 24.45 -3.2 26.3 59 -10 14 0
04:38 999 29.5 828 24.45 -3.2 26.3 59 -10 14 0
04:39 999 29.5 828 24.45 -3.2 26.2 61 -9.7 14.5 0
04:40 999 29.5 828 24.45 -3.4 25.9 61 -9.8 14.4 0
04:41 999 29.5 828 24.45 -3.4 25.8 62 -9.7 14.5 0
04:42 999 29.5 828 24.45 -3.5 25.7 62 -9.7 14.5 0
04:43 999 29.5 828 24.45 -3.5 25.7 61 -10.1 13.9 0
04:44 999 29.5 828 24.45 -3.4 25.9 59 -10.3 13.4 0
04:45 999 29.5 828 24.45 -3.2 26.3 59 -10.1 13.8 0
04:46 999 29.5 828 24.45 -3.1 26.4 59 -10.1 13.8 0
04:47 999 29.5 828 24.45 -3.1 26.4 59 -10 14 0
04:48 999 29.5 828 24.45 -3.2 26.3 60 -9.9 14.1 0
04:49 999 29.5 828 24.45 -3.2 26.2 60 -9.9 14.2 0
04:50 999 29.5 828 24.45 -3.2 26.2 61 -9.8 14.4 0
04:51 999 29.5 828 24.45 -3.3 26.1 62 -9.6 14.8 0
04:52 999 29.5 828 24.45 -3.5 25.8 63 -9.5 14.9 0
04:53 999 29.5 828 24.45 -3.7 25.4 64 -9.5 14.9 0
04:54 999 29.5 828 24.45 -3.9 25.1 65 -9.5 15 0
04:55 999 29.5 828 24.45 -4 24.8 65 -9.7 14.6 0
04:56 999 29.5 828 24.45 -4 24.8 64 -9.8 14.3 0
04:57 999 29.5 828 24.45 -3.9 25 64 -9.6 14.7 0
04:58 999 29.5 828 24.45 -3.9 24.9 65 -9.5 14.8 0
04:59 999 29.5 828 24.45 -4.1 24.6 66 -9.5 14.8 0
05:00 999 29.5 828 24.45 -4.2 24.4 67 -9.5 14.9 0
05:01 999 29.5 828 24.45 -4.3 24.2 66 -9.7 14.5 0
05:02 999 29.5 828 24.45 -4.2 24.5 65 -9.8 14.4 0
05:03 999 29.5 828 24.45 -4.1 24.6 65 -9.8 14.4 0
05:04 999 29.5 828 24.45 -4 24.9 65 -9.6 14.7 0
05:05 999 29.5 828 24.45 -4 24.8 66 -9.5 14.9 0
05:06 999 29.5 828 24.45 -4.2 24.5 67 -9.4 15 0
05:07 999 29.5 828 24.45 -4.2 24.4 66 -9.7 14.5 0
05:08 999 29.5 828 24.45 -4 24.8 64 -9.9 14.2 0
05:09 999 29.5 828 24.45 -3.8 25.2 64 -9.6 14.7 0
05:10 999 29.5 828 24.45 -3.8 25.2 64 -9.6 14.8 0
05:11 999 29.5 828 24.45 -3.8 25.2 65 -9.5 14.9 0
05:12 999 29.5 828 24.45 -3.9 25 66 -9.4 15 0
05:13 999 29.5 828 24.45 -4 24.8 66 -9.4 15 0
05:14 999 29.5 828 24.45 -4.1 24.6 67 -9.4 15 0
05:15 999 29.5 828 24.45 -4.2 24.4 67 -9.5 14.9 0
05:16 999 29.5 828 24.45 -4.2 24.4 66 -9.6 14.7 0
05:17 999 29.5 828 24.45 -4.1 24.7 66 -9.6 14.7 0
05:18 999 29.5 828 24.45 -4 24.7 65 -9.7 14.6 0
05:19 999 29.5 828 24.45 -4 24.8 65 -9.6 14.7 0
05:20 999 29.5 828 24.45 -4 24.8 66 -9.5 15 0
05:21 999 29.5 828 24.45 -4.1 24.6 67 -9.4 15.1 0
05:22 999 29.5 828 24.45 -4.2 24.5 66 -9.6 14.7 0
05:23 999 29.5 828 24.45 -4 24.8 64 -9.8 14.3 0
05:24 999 29.5 828 24.45 -3.9 25 65 -9.6 14.7 0
05:25 999 29.5 828 24.45 -3.9 25 65 -9.5 14.8 0
05:26 999 29.5 828 24.45 -4 24.8 65 -9.6 14.7 0
05:27 999 29.5 828 24.45 -4 24.8 65 -9.6 14.7 0
05:28 998 29.47 828 24.45 -4 24.8 65 -9.7 14.5 0
05:29 998 29.47 828 24.45 -4 24.9 64 -9.7 14.5 0
05:30 998 29.47 828 24.45 -3.9 24.9 65 -9.5 14.8 0
05:31 998 29.47 828 24.45 -4 24.7 66 -9.5 14.8 0
05:32 998 29.47 828 24.45 -4.1 24.5 66 -9.7 14.6 0
05:33 998 29.47 828 24.45 -4.1 24.6 65 -9.8 14.4 0
05:34 998 29.47 828 24.45 -4 24.8 65 -9.7 14.6 0
05:35 998 29.47 828 24.45 -4 24.9 65 -9.7 14.6 0
05:36 998 29.47 828 24.45 -3.9 25 64 -9.8 14.4 0
05:37 998 29.47 828 24.45 -3.8 25.1 63 -9.8 14.4 0
05:38 998 29.47 828 24.45 -3.7 25.3 63 -9.7 14.5 0
05:39 998 29.47 828 24.45 -3.6 25.5 62 -9.9 14.1 0
05:40 998 29.47 828 24.45 -3.4 25.8 62 -9.8 14.3 0
05:41 998 29.47 828 24.45 -3.3 26 61 -9.8 14.3 0
05:42 998 29.47 828 24.45 -3.2 26.2 61 -9.8 14.4 0
05:43 998 29.47 828 24.45 -3.2 26.3 61 -9.7 14.5 0
05:44 998 29.47 828 24.45 -3.2 26.3 61 -9.7 14.6 0
05:45 998 29.47 827 24.42 -3.2 26.3 61 -9.7 14.5 0
05:46 998 29.47 827 24.42 -3.2 26.3 61 -9.8 14.4 0
05:47 998 29.47 827 24.42 -3.1 26.3 61 -9.7 14.6 0
05:48 998 29.47 827 24.42 -3.2 26.3 61 -9.7 14.6 0
05:49 998 29.47 827 24.42 -3.2 26.2 61 -9.6 14.7 0
05:50 998 29.47 827 24.42 -3.3 26.1 62 -9.6 14.8 0
05:51 998 29.47 828 24.45 -3.4 25.8 63 -9.6 14.8 0
05:52 998 29.47 828 24.45 -3.6 25.5 63 -9.6 14.7 0
05:53 998 29.47 828 24.45 -3.7 25.3 64 -9.6 14.7 0
05:54 998 29.47 828 24.45 -3.8 25.2 64 -9.7 14.5 0
05:55 998 29.47 827 24.42 -3.7 25.3 63 -9.7 14.5 0
05:56 998 29.47 827 24.42 -3.6 25.5 63 -9.6 14.6 0
05:57 998 29.47 827 24.42 -3.6 25.6 63 -9.6 14.8 0
05:58 998 29.47 828 24.45 -3.7 25.4 63 -9.6 14.7 0
05:59 998 29.47 828 24.45 -3.7 25.4 63 -9.7 14.6 0
06:00 998 29.47 828 24.45 -3.7 25.4 63 -9.7 14.6 0
06:01 998 29.47 828 24.45 -3.6 25.5 63 -9.7 14.5 0
06:02 998 29.47 827 24.42 -3.5 25.6 63 -9.7 14.5 0
06:03 998 29.47 827 24.42 -3.5 25.6 62 -9.8 14.4 0
06:04 998 29.47 827 24.42 -3.4 25.9 61 -9.8 14.3 0
06:05 998 29.47 827 24.42 -3.2 26.2 60 -9.9 14.1 0
06:06 998 29.47 828 24.45 -3 26.5 60 -9.7 14.5 0
06:07 998 29.47 828 24.45 -3.1 26.5 60 -9.7 14.5 0
06:08 998 29.47 828 24.45 -3.2 26.3 61 -9.6 14.7 0
06:09 998 29.47 827 24.42 -3.4 26 62 -9.6 14.8 0
06:10 998 29.47 827 24.42 -3.4 25.8 63 -9.6 14.8 0
06:11 998 29.47 827 24.42 -3.5 25.8 63 -9.5 14.8 0
06:12 998 29.47 827 24.42 -3.6 25.6 63 -9.6 14.7 0
06:13 998 29.47 827 24.42 -3.6 25.5 63 -9.6 14.7 0
06:14 998 29.47 827 24.42 -3.4 25.8 62 -9.8 14.4 0
06:15 998 29.47 827 24.42 -3.1 26.4 60 -9.7 14.5 0
06:16 998 29.47 827 24.42 -3 26.6 60 -9.7 14.5 0
06:17 998 29.47 827 24.42 -2.8 26.9 59 -9.7 14.5 0
06:18 998 29.47 827 24.42 -2.6 27.3 58 -9.7 14.5 0
06:19 998 29.47 827 24.42 -2.5 27.5 59 -9.5 14.9 0
06:20 998 29.47 827 24.42 -2.7 27.1 60 -9.4 15.1 0
06:21 998 29.47 827 24.42 -2.9 26.8 61 -9.3 15.2 0
06:22 998 29.47 827 24.42 -3 26.6 62 -9.3 15.3 0
06:23 998 29.47 827 24.42 -3 26.5 61 -9.5 14.9 0
06:24 998 29.47 827 24.42 -3 26.7 60 -9.6 14.7 0
06:25 998 29.47 827 24.42 -2.8 27 61 -9.4 15.2 0
06:26 998 29.47 827 24.42 -2.8 26.9 61 -9.3 15.2 0
06:27 998 29.47 827 24.42 -2.8 27 61 -9.3 15.2 0
06:28 998 29.47 827 24.42 -2.7 27.1 60 -9.5 14.9 0
06:29 998 29.47 827 24.42 -2.5 27.4 58 -9.7 14.5 0
06:30 998 29.47 827 24.42 -2.1 28.2 55 -9.9 14.1 0
06:31 998 29.47 827 24.42 -1.6 29.1 55 -9.6 14.7 0
06:32 998 29.47 827 24.42 -1.6 29.1 56 -9.4 15.1 0
06:33 998 29.47 827 24.42 -1.9 28.6 56 -9.4 15 0
06:34 998 29.47 827 24.42 -2 28.4 56 -9.6 14.8 0
06:35 998 29.47 827 24.42 -2 28.4 57 -9.4 15.1 0
06:36 998 29.47 827 24.42 -2.1 28.2 58 -9.4 15.1 0
06:37 998 29.47 827 24.42 -2.2 28 59 -9.2 15.4 0
06:38 998 29.47 827 24.42 -2.4 27.7 60 -9.2 15.5 0
06:39 998 29.47 827 24.42 -2.5 27.5 59 -9.4 15.1 0
06:40 998 29.47 827 24.42 -2.5 27.5 59 -9.4 15 0
06:41 998 29.47 827 24.42 -2.5 27.5 60 -9.3 15.3 0
06:42 998 29.47 827 24.42 -2.6 27.3 61 -9.1 15.5 0
06:43 998 29.47 827 24.42 -2.8 27 64 -8.8 16.2 0
06:44 998 29.47 827 24.42 -3.2 26.3 65 -8.8 16.1 0
06:45 998 29.47 827 24.42 -3.3 26.1 64 -9.2 15.4 0
06:46 998 29.47 827 24.42 -3.2 26.3 64 -9 15.7 0
06:47 998 29.47 827 24.42 -3.2 26.3 64 -9.1 15.6 0
06:48 998 29.47 827 24.42 -3.1 26.4 64 -9.1 15.7 0
06:49 998 29.47 827 24.42 -3.1 26.4 64 -8.9 16 0
06:50 998 29.47 827 24.42 -3.2 26.2 64 -9 15.8 0
06:51 998 29.47 827 24.42 -3.2 26.2 63 -9.3 15.3 0
06:52 998 29.47 827 24.42 -3.1 26.4 63 -9.2 15.5 0
06:53 998 29.47 827 24.42 -3 26.5 63 -9.2 15.5 0
06:54 998 29.47 827 24.42 -3 26.6 63 -9 15.8 0
06:55 998 29.47 827 24.42 -3 26.6 64 -8.9 16 0
06:56 998 29.47 827 24.42 -3.1 26.4 64 -9.1 15.7 0
06:57 998 29.47 827 24.42 -3.1 26.5 63 -9.2 15.5 0
06:58 998 29.47 827 24.42 -3 26.6 62 -9.3 15.3 0
06:59 998 29.47 827 24.42 -2.9 26.9 61 -9.3 15.3 0
07:00 998 29.47 827 24.42 -2.7 27.1 61 -9.2 15.4 0
07:01 998 29.47 828 24.45 -2.6 27.3 58 -9.7 14.5 0
07:02 998 29.47 828 24.45 -2.4 27.7 59 -9.3 15.3 0
07:03 998 29.47 828 24.45 -2.3 27.8 61 -8.9 15.9 0
07:04 998 29.47 828 24.45 -2.4 27.6 61 -9 15.8 0
07:05 998 29.47 828 24.45 -2.5 27.4 60 -9.2 15.4 0
07:06 998 29.47 827 24.42 -2.6 27.4 60 -9.4 15.2 0
07:07 998 29.47 827 24.42 -2.5 27.5 59 -9.4 15.1 0
07:08 998 29.47 827 24.42 -2.4 27.7 58 -9.5 14.9 0
07:09 998 29.47 827 24.42 -2.3 27.8 61 -8.9 15.9 0
07:10 998 29.47 827 24.42 -2.6 27.3 61 -9.1 15.6 0
07:11 998 29.47 827 24.42 -2.6 27.3 60 -9.4 15.1 0
07:12 998 29.47 827 24.42 -2.5 27.5 60 -9.1 15.5 0
07:13 998 29.47 827 24.42 -2.2 28 60 -9 15.7 0
07:14 998 29.47 827 24.42 -1.9 28.7 57 -9.2 15.5 0
07:15 998 29.47 827 24.42 -1.8 28.7 58 -9 15.9 0
07:16 998 29.47 827 24.42 -1.9 28.5 58 -9.1 15.5 0
07:17 998 29.47 827 24.42 -2.1 28.2 60 -8.9 16 0
07:18 998 29.47 827 24.42 -2.2 28 59 -9.1 15.6 0
07:19 998 29.47 827 24.42 -2.2 28 57 -9.6 14.8 0
07:20 998 29.47 827 24.42 -2.1 28.3 58 -9.2 15.4 0
07:21 998 29.47 827 24.42 -2 28.3 58 -9.3 15.2 0
07:22 998 29.47 827 24.42 -2 28.4 58 -9.2 15.4 0
07:23 998 29.47 827 24.42 -1.7 29 55 -9.5 15 0
07:24 998 29.47 827 24.42 -1.3 29.6 55 -9.2 15.5 0
07:25 998 29.47 827 24.42 -1 30.2 55 -9 15.7 0
07:26 998 29.47 827 24.42 -0.8 30.6 54 -8.9 16.1 0
07:27 998 29.47 827 24.42 -0.6 30.9 54 -8.8 16.1 0
07:28 998 29.47 827 24.42 -0.5 31 53 -8.9 15.9 0
07:29 998 29.47 827 24.42 -0.5 31.1 53 -8.8 16.1 0
07:30 998 29.47 827 24.42 -0.4 31.3 53 -8.8 16.2 0
07:31 998 29.47 827 24.42 -0.3 31.4 53 -8.9 16 0
07:32 998 29.47 827 24.42 -0.3 31.5 53 -8.7 16.3 0
07:33 998 29.47 827 24.42 -0.3 31.4 53 -8.8 16.2 0
07:34 998 29.47 827 24.42 -0.4 31.4 53 -8.8 16.2 0
07:35 998 29.47 827 24.42 -0.6 31 54 -8.8 16.2 0
07:36 998 29.47 827 24.42 -0.6 31 54 -8.8 16.2 0
07:37 998 29.47 827 24.42 -0.4 31.2 53 -8.8 16.1 0
07:38 998 29.47 827 24.42 -0.3 31.4 53 -8.8 16.1 0
07:39 998 29.47 827 24.42 -0.2 31.6 53 -8.8 16.2 0
07:40 998 29.47 827 24.42 -0.2 31.6 53 -8.7 16.4 0
07:41 998 29.47 827 24.42 -0.3 31.5 54 -8.6 16.5 0
07:42 998 29.47 827 24.42 -0.4 31.3 54 -8.6 16.4 0
07:43 998 29.47 827 24.42 -0.5 31.1 54 -8.7 16.4 0
07:44 998 29.47 827 24.42 -0.5 31.1 54 -8.7 16.4 0
07:45 998 29.47 827 24.42 -0.6 31 55 -8.5 16.7 0
07:46 998 29.47 827 24.42 -0.6 30.9 55 -8.6 16.4 0
07:47 998 29.47 827 24.42 -0.8 30.6 55 -8.7 16.4 0
07:48 998 29.47 827 24.42 -0.9 30.5 55 -8.8 16.2 0
07:49 998 29.47 827 24.42 -0.8 30.5 56 -8.6 16.6 0
07:50 998 29.47 827 24.42 -1.1 29.9 58 -8.3 17.1 0
07:51 998 29.47 827 24.42 -1.7 28.9 61 -8.4 17 0
07:52 998 29.47 827 24.42 -2 28.4 60 -8.7 16.4 0
07:53 998 29.47 827 24.42 -2.2 28.1 61 -8.7 16.3 0
07:54 998 29.47 827 24.42 -2.3 27.9 63 -8.5 16.7 0
07:55 998 29.47 827 24.42 -2.5 27.5 63 -8.6 16.5 0
07:56 998 29.47 827 24.42 -2.6 27.4 63 -8.6 16.5 0
07:57 998 29.47 827 24.42 -2.6 27.2 65 -8.4 17 0
07:58 998 29.47 827 24.42 -2.8 26.9 66 -8.3 17 0
07:59 998 29.47 827 24.42 -3.1 26.5 67 -8.5 16.8 0
08:00 998 29.47 827 24.42 -3.2 26.3 67 -8.5 16.8 0
08:01 998 29.47 827 24.42 -3.2 26.2 67 -8.4 16.9 0
08:02 998 29.47 827 24.42 -3.2 26.2 68 -8.4 17 0
08:03 998 29.47 827 24.42 -3.3 26.1 68 -8.3 17 0
08:04 998 29.47 827 24.42 -3.3 26.1 68 -8.4 17 0
08:05 998 29.47 827 24.42 -3.4 25.9 68 -8.4 16.9 0
08:06 998 29.47 827 24.42 -3.4 25.9 69 -8.3 17 0
08:07 998 29.47 827 24.42 -3.4 25.9 68 -8.4 16.9 0
08:08 998 29.47 827 24.42 -3.3 26 68 -8.4 16.9 0
08:09 998 29.47 827 24.42 -3.3 26.1 67 -8.6 16.6 0
08:10 998 29.47 827 24.42 -3.2 26.3 67 -8.4 16.9 0
08:11 998 29.47 827 24.42 -3.2 26.3 68 -8.3 17.1 0
08:12 998 29.47 827 24.42 -3.3 26.1 69 -8.2 17.3 0
08:13 998 29.47 827 24.42 -3.4 25.8 69 -8.3 17.1 0
08:14 998 29.47 827 24.42 -3.4 25.8 68 -8.5 16.7 0
08:15 998 29.47 827 24.42 -3.3 26.1 67 -8.5 16.7 0
08:16 998 29.47 827 24.42 -3.1 26.4 66 -8.6 16.6 0
08:17 998 29.47 827 24.42 -3 26.6 66 -8.5 16.6 0
08:18 998 29.47 827 24.42 -2.9 26.9 65 -8.5 16.8 0
08:19 998 29.47 827 24.42 -2.9 26.9 66 -8.3 17.1 0
08:20 998 29.47 827 24.42 -3.1 26.3 69 -8 17.6 0
08:21 998 29.47 827 24.42 -3.5 25.7 70 -8.1 17.3 0
08:22 998 29.47 827 24.42 -3.6 25.5 70 -8.3 17.1 0
08:23 998 29.47 827 24.42 -3.6 25.6 70 -8.3 17 0
08:24 998 29.47 827 24.42 -3.5 25.6 70 -8.2 17.2 0
08:25 998 29.47 827 24.42 -3.5 25.6 70 -8.2 17.2 0
08:26 998 29.47 827 24.42 -3.5 25.8 69 -8.3 17.1 0
08:27 998 29.47 827 24.42 -3.4 25.9 69 -8.4 17 0
08:28 998 29.47 827 24.42 -3.3 26.1 68 -8.3 17 0
08:29 998 29.47 827 24.42 -3.2 26.2 68 -8.4 17 0
08:30 998 29.47 827 24.42 -3.1 26.4 67 -8.4 16.8 0
08:31 998 29.47 827 24.42 -3 26.6 67 -8.3 17.1 0
08:32 998 29.47 827 24.42 -3 26.7 67 -8.3 17.1 0
08:33 998 29.47 827 24.42 -3 26.7 67 -8.3 17 0
08:34 998 29.47 827 24.42 -2.9 26.7 68 -8.1 17.4 0
08:35 998 29.47 827 24.42 -3 26.6 69 -7.9 17.8 0
08:36 998 29.47 827 24.42 -3.2 26.3 70 -7.9 17.8 0
08:37 998 29.47 827 24.42 -3.4 25.9 70 -8.1 17.4 0
08:38 998 29.47 827 24.42 -3.4 25.8 70 -8.1 17.3 0
08:39 998 29.47 827 24.42 -3.4 25.9 69 -8.3 17.1 0
08:40 998 29.47 827 24.42 -3.1 26.4 66 -8.7 16.3 0
08:41 998 29.47 827 24.42 -2.7 27.1 63 -8.7 16.3 0
08:42 998 29.47 827 24.42 -2.4 27.7 62 -8.7 16.4 0
08:43 998 29.47 827 24.42 -2.2 28.1 63 -8.2 17.2 0
08:44 998 29.47 827 24.42 -2.2 28 64 -8.2 17.2 0
08:45 998 29.47 827 24.42 -2.3 27.9 64 -8.3 17.1 0
08:46 998 29.47 827 24.42 -2.4 27.8 64 -8.2 17.2 0
08:47 998 29.47 827 24.42 -2.4 27.7 65 -8 17.5 0
08:48 998 29.47 827 24.42 -2.5 27.6 66 -8 17.5 0
08:49 998 29.47 827 24.42 -2.5 27.4 65 -8.3 17.1 0
08:50 998 29.47 827 24.42 -2.6 27.4 65 -8.2 17.2 0
08:51 998 29.47 827 24.42 -2.6 27.4 65 -8.2 17.2 0
08:52 998 29.47 827 24.42 -2.6 27.3 65 -8.3 17.1 0
08:53 998 29.47 827 24.42 -2.6 27.3 64 -8.5 16.8 0
08:54 998 29.47 827 24.42 -2.5 27.4 64 -8.4 16.8 0
08:55 998 29.47 827 24.42 -2.5 27.5 65 -8.2 17.2 0
08:56 998 29.47 827 24.42 -2.5 27.5 66 -7.9 17.7 0
08:57 998 29.47 827 24.42 -2.7 27.1 67 -8.1 17.5 0
08:58 998 29.47 827 24.42 -2.8 26.9 65 -8.4 16.8 0
08:59 998 29.47 827 24.42 -2.6 27.2 63 -8.7 16.4 0
09:00 998 29.47 827 24.42 -2.4 27.7 62 -8.8 16.2 0
09:01 998 29.47 827 24.42 -2.2 28.1 61 -8.8 16.2 0
09:02 998 29.47 827 24.42 -2 28.4 60 -8.7 16.4 0
09:03 998 29.47 827 24.42 -1.9 28.7 60 -8.6 16.5 0
09:04 998 29.47 827 24.42 -1.8 28.8 60 -8.5 16.6 0
09:05 998 29.47 827 24.42 -1.9 28.6 63 -8 17.6 0
09:06 998 29.47 827 24.42 -2.2 28 66 -7.8 17.9 0
09:07 998 29.47 827 24.42 -2.6 27.3 66 -8.1 17.4 0
09:08 998 29.47 827 24.42 -2.7 27.1 64 -8.6 16.5 0
09:09 998 29.47 827 24.42 -2.4 27.6 62 -8.8 16.2 0
09:10 998 29.47 827 24.42 -2.1 28.2 60 -8.8 16.1 0
09:11 998 29.47 827 24.42 -1.8 28.8 59 -8.8 16.2 0
09:12 998 29.47 827 24.42 -1.6 29.1 60 -8.5 16.7 0
09:13 998 29.47 827 24.42 -1.6 29.1 60 -8.4 16.9 0
09:14 998 29.47 827 24.42 -1.7 29 60 -8.4 16.8 0
09:15 998 29.47 827 24.42 -1.7 29 61 -8.1 17.4 0
09:16 998 29.47 827 24.42 -1.9 28.7 63 -7.9 17.8 0
09:17 998 29.47 827 24.42 -2.1 28.3 64 -8 17.6 0
09:18 998 29.47 827 24.42 -2.2 28 65 -7.9 17.9 0
09:19 998 29.47 827 24.42 -2.4 27.8 67 -7.8 18 0
09:20 998 29.47 827 24.42 -2.5 27.4 67 -7.8 18 0
09:21 998 29.47 827 24.42 -2.6 27.4 67 -7.9 17.8 0
09:22 998 29.47 827 24.42 -2.6 27.3 67 -7.9 17.7 0
09:23 998 29.47 827 24.42 -2.6 27.3 68 -7.8 18 0
09:24 998 29.47 827 24.42 -2.7 27.1 68 -7.7 18.1 0
09:25 998 29.47 827 24.42 -2.8 27 68 -7.9 17.8 0
09:26 998 29.47 827 24.42 -2.8 27 68 -7.9 17.7 0
09:27 998 29.47 827 24.42 -2.7 27.2 67 -7.9 17.8 0
09:28 998 29.47 827 24.42 -2.6 27.3 67 -7.8 17.9 0
09:29 998 29.47 827 24.42 -2.6 27.4 67 -7.8 17.9 0
09:30 998 29.47 827 24.42 -2.5 27.5 66 -8 17.6 0
09:31 998 29.47 827 24.42 -2.4 27.7 66 -8 17.6 0
09:32 998 29.47 827 24.42 -2.3 27.9 65 -7.9 17.8 0
09:33 998 29.47 827 24.42 -2.2 28 65 -8 17.6 0
09:34 998 29.47 827 24.42 -2.1 28.2 64 -8 17.5 0
09:35 998 29.47 827 24.42 -2.1 28.2 63 -8.2 17.3 0
09:36 998 29.47 827 24.42 -2 28.4 64 -8 17.7 0
09:37 998 29.47 827 24.42 -2 28.4 64 -8 17.6 0
09:38 998 29.47 827 24.42 -2 28.5 64 -7.9 17.7 0
09:39 998 29.47 827 24.42 -2 28.4 64 -7.9 17.7 0
09:40 998 29.47 827 24.42 -2 28.4 64 -7.9 17.8 0
09:41 998 29.47 827 24.42 -2 28.4 64 -7.9 17.8 0
09:42 998 29.47 827 24.42 -2 28.4 65 -7.8 18 0
09:43 998 29.47 827 24.42 -2.1 28.2 66 -7.7 18.1 0
09:44 998 29.47 827 24.42 -2.3 27.9 67 -7.7 18.2 0
09:45 998 29.47 827 24.42 -2.3 27.9 65 -7.9 17.8 0
09:46 998 29.47 827 24.42 -2.2 28.1 65 -7.8 17.9 0
09:47 998 29.47 827 24.42 -2.1 28.3 65 -7.8 17.9 0
09:48 998 29.47 827 24.42 -2 28.3 64 -7.9 17.7 0
09:49 998 29.47 827 24.42 -2 28.4 64 -8 17.7 0
09:50 998 29.47 827 24.42 -1.9 28.5 64 -7.9 17.8 0
09:51 998 29.47 827 24.42 -1.8 28.7 63 -8 17.5 0
09:52 998 29.47 827 24.42 -1.8 28.8 63 -7.9 17.8 0
09:53 998 29.47 827 24.42 -1.7 28.9 63 -7.9 17.9 0
09:54 998 29.47 827 24.42 -1.7 28.9 63 -7.8 17.9 0
09:55 998 29.47 827 24.42 -1.7 29 63 -7.9 17.8 0
09:56 998 29.47 827 24.42 -1.6 29.1 63 -7.7 18.1 0
09:57 998 29.47 827 24.42 -1.7 29 64 -7.7 18.2 0
09:58 998 29.47 827 24.42 -1.8 28.8 65 -7.6 18.4 0
09:59 998 29.47 827 24.42 -1.9 28.6 64 -7.9 17.8 0
10:00 998 29.47 827 24.42 -1.8 28.7 63 -7.9 17.8 0
10:01 998 29.47 827 24.42 -1.7 28.9 63 -8 17.7 0
10:02 998 29.47 827 24.42 -1.6 29.1 62 -7.9 17.7 0
10:03 998 29.47 827 24.42 -1.5 29.2 63 -7.7 18.2 0
10:04 998 29.47 827 24.42 -1.6 29.2 64 -7.5 18.5 0
10:05 998 29.47 827 24.42 -1.7 28.9 64 -7.7 18.2 0
10:06 998 29.47 827 24.42 -1.8 28.8 63 -7.9 17.7 0
10:07 998 29.47 827 24.42 -1.7 28.9 62 -8.2 17.3 0
10:08 998 29.47 827 24.42 -1.6 29.1 63 -7.8 17.9 0
10:09 998 29.47 827 24.42 -1.7 29 63 -7.9 17.8 0
10:10 998 29.47 827 24.42 -1.7 29 61 -8.3 17.1 0
10:11 998 29.47 827 24.42 -1.5 29.3 60 -8.3 17.1 0
10:12 998 29.47 827 24.42 -1.3 29.6 60 -8.2 17.3 0
10:13 998 29.47 827 24.42 -1.2 29.8 60 -8.1 17.5 0
10:14 998 29.47 827 24.42 -1.1 30.1 59 -8.1 17.5 0
10:15 998 29.47 827 24.42 -0.9 30.3 58 -8.1 17.4 0
10:16 998 29.47 827 24.42 -0.9 30.3 58 -8.2 17.2 0
10:17 998 29.47 827 24.42 -0.9 30.4 59 -8 17.6 0
10:18 998 29.47 827 24.42 -0.9 30.4 55 -9 15.9 0
10:19 998 29.47 827 24.42 -0.7 30.8 52 -9.2 15.4 0
10:20 998 29.47 827 24.42 -0.3 31.5 51 -9.2 15.5 0
10:21 998 29.47 827 24.42 -0.1 31.9 52 -8.7 16.4 0
10:22 998 29.47 827 24.42 0.1 32.2 52 -8.5 16.7 0
10:23 998 29.47 827 24.42 0.2 32.3 54 -8.2 17.3 0
10:24 998 29.47 827 24.42 0.1 32.2 53 -8.4 16.8 0
10:25 998 29.47 827 24.42 0.1 32.1 51 -8.9 16 0
10:26 998 29.47 827 24.42 0.1 32.3 51 -8.8 16.1 0
10:27 998 29.47 827 24.42 0.3 32.5 52 -8.4 16.9 0
10:28 998 29.47 827 24.42 0.2 32.4 52 -8.6 16.6 0
10:29 998 29.47 827 24.42 0.2 32.3 51 -8.7 16.4 0
10:30 998 29.47 827 24.42 0.1 32.2 56 -7.7 18.1 0
10:31 998 29.47 827 24.42 -0.1 31.8 57 -7.6 18.3 0
10:32 998 29.47 827 24.42 -0.3 31.4 56 -8.1 17.4 0
10:33 998 29.47 827 24.42 -0.5 31.2 54 -8.6 16.5 0
10:34 998 29.47 827 24.42 -0.4 31.2 54 -8.6 16.6 0
10:35 998 29.47 827 24.42 -0.3 31.4 54 -8.5 16.7 0
10:36 998 29.47 827 24.42 -0.2 31.6 53 -8.6 16.5 0
10:37 998 29.47 827 24.42 -0.1 31.8 53 -8.5 16.7 0
10:38 998 29.47 827 24.42 -0.1 31.8 53 -8.6 16.5 0
10:39 998 29.47 827 24.42 -0.1 31.9 53 -8.5 16.7 0
10:40 998 29.47 827 24.42 -0.1 31.9 54 -8.2 17.2 0
10:41 998 29.47 827 24.42 -0 32 53 -8.4 16.8 0
10:42 998 29.47 827 24.42 0 32 56 -7.7 18.1 0
10:43 998 29.47 827 24.42 -0.2 31.6 59 -7.2 19 0
10:44 998 29.47 827 24.42 -0.7 30.7 62 -7.1 19.3 0
10:45 998 29.47 827 24.42 -1.1 30.1 60 -7.9 17.7 0
10:46 998 29.47 827 24.42 -1.1 30 58 -8.4 17 0
10:47 998 29.47 827 24.42 -1 30.1 58 -8.3 17.1 0
10:48 998 29.47 827 24.42 -0.9 30.4 57 -8.5 16.8 0
10:49 998 29.47 827 24.42 -0.7 30.7 56 -8.4 17 0
10:50 998 29.47 827 24.42 -0.6 31 55 -8.4 16.8 0
10:51 998 29.47 827 24.42 -0.4 31.3 55 -8.4 16.9 0
10:52 998 29.47 827 24.42 -0.2 31.6 55 -8.3 17.1 0
10:53 997 29.44 827 24.42 -0.1 31.7 56 -7.9 17.8 0
10:54 997 29.44 827 24.42 -0.2 31.7 57 -7.7 18.1 0
10:55 997 29.44 827 24.42 -0.2 31.6 58 -7.6 18.3 0
10:56 997 29.44 827 24.42 -0.4 31.3 57 -7.8 17.9 0
10:57 997 29.44 827 24.42 -0.5 31.2 56 -8.2 17.3 0
10:58 997 29.44 827 24.42 -0.4 31.2 56 -8.2 17.2 0
10:59 997 29.44 827 24.42 -0.3 31.4 57 -7.8 18 0
11:00 998 29.47 827 24.42 -0.2 31.6 57 -7.8 18 0
11:01 998 29.47 827 24.42 -0.1 31.8 56 -7.9 17.8 0
11:02 998 29.47 827 24.42 -0.1 31.9 56 -7.9 17.8 0
11:03 997 29.44 827 24.42 0 32 55 -8 17.6 0
11:04 997 29.44 827 24.42 0 32 57 -7.4 18.6 0
11:05 997 29.44 827 24.42 -0 31.9 57 -7.5 18.4 0
11:06 997 29.44 827 24.42 -0.1 31.8 59 -7.3 18.9 0
11:07 997 29.44 826 24.39 -0.2 31.7 57 -7.8 18 0
11:08 997 29.44 826 24.39 -0.1 31.8 55 -8 17.5 0
11:09 997 29.44 826 24.39 -0 32 55 -7.9 17.7 0
11:10 997 29.44 826 24.39 -0.1 31.8 58 -7.5 18.6 0
11:11 997 29.44 826 24.39 -0.3 31.4 60 -7.2 19.1 0
11:12 997 29.44 826 24.39 -0.7 30.7 60 -7.5 18.6 0
11:13 997 29.44 826 24.39 -0.9 30.3 59 -7.9 17.7 0
11:14 997 29.44 826 24.39 -1 30.2 61 -7.5 18.4 0
11:15 997 29.44 826 24.39 -1.1 30.1 58 -8.3 17 0
11:16 997 29.44 826 24.39 -1 30.2 60 -7.7 18.1 0
11:17 997 29.44 826 24.39 -1 30.3 58 -8.2 17.3 0
11:18 997 29.44 826 24.39 -0.8 30.5 57 -8.4 17 0
11:19 997 29.44 826 24.39 -0.6 30.9 55 -8.5 16.7 0
11:20 997 29.44 826 24.39 -0.3 31.4 56 -8.1 17.4 0
11:21 997 29.44 826 24.39 -0.1 31.8 54 -8.4 16.9 0
11:22 997 29.44 826 24.39 -0 32 54 -8.2 17.2 0
11:23 997 29.44 826 24.39 0 32 54 -8.1 17.4 0
11:24 997 29.44 826 24.39 0 32 54 -8.2 17.2 0
11:25 997 29.44 826 24.39 0.1 32.2 53 -8.3 17.1 0
11:26 997 29.44 826 24.39 0.1 32.2 53 -8.3 17.1 0
11:27 997 29.44 826 24.39 0 32.1 53 -8.5 16.8 0
11:28 997 29.44 826 24.39 0.1 32.1 53 -8.4 16.8 0
11:29 997 29.44 826 24.39 0.1 32.2 53 -8.5 16.7 0
11:30 997 29.44 826 24.39 0.2 32.3 53 -8.3 17.1 0
11:31 997 29.44 826 24.39 0.2 32.4 55 -7.7 18.1 0
11:32 997 29.44 826 24.39 0.2 32.4 56 -7.5 18.6 0
11:33 997 29.44 826 24.39 0.3 32.5 54 -8.1 17.5 0
11:34 997 29.44 826 24.39 0.2 32.4 55 -7.9 17.8 0
11:35 997 29.44 826 24.39 0.1 32.3 54 -8.2 17.3 0
11:36 997 29.44 826 24.39 0.1 32.1 54 -8.2 17.2 0
11:37 997 29.44 826 24.39 0 32 55 -8 17.7 0
11:38 997 29.44 826 24.39 -0.1 31.9 57 -7.6 18.3 0
11:39 997 29.44 826 24.39 -0.2 31.7 58 -7.4 18.7 0
11:40 997 29.44 826 24.39 -0.2 31.6 60 -7.1 19.2 0
11:41 997 29.44 826 24.39 -0.3 31.5 61 -6.9 19.6 0
11:42 997 29.44 826 24.39 -0.4 31.3 62 -6.8 19.8 0
11:43 997 29.44 826 24.39 -0.5 31.1 62 -6.8 19.7 0
11:44 997 29.44 826 24.39 -0.6 30.9 63 -6.8 19.7 0
11:45 997 29.44 826 24.39 -0.8 30.6 62 -7.1 19.2 0
11:46 997 29.44 826 24.39 -0.9 30.4 62 -7.3 18.9 0
11:47 997 29.44 826 24.39 -0.8 30.5 60 -7.6 18.4 0
11:48 997 29.44 826 24.39 -0.7 30.8 58 -7.9 17.7 0
11:49 997 29.44 826 24.39 -0.5 31.2 57 -8 17.5 0
11:50 997 29.44 826 24.39 -0.2 31.6 55 -8.1 17.4 0
11:51 997 29.44 826 24.39 -0 31.9 55 -8.1 17.4 0
11:52 997 29.44 826 24.39 0.2 32.3 54 -8.1 17.4 0
11:53 997 29.44 826 24.39 0.4 32.7 54 -7.8 18 0
11:54 997 29.44 826 24.39 0.4 32.7 53 -8 17.6 0
11:55 997 29.44 826 24.39 0.4 32.7 53 -8.2 17.3 0
11:56 997 29.44 826 24.39 0.5 32.9 53 -8.1 17.4 0
11:57 997 29.44 826 24.39 0.5 32.9 54 -7.8 18 0
11:58 997 29.44 826 24.39 0.5 32.9 53 -8 17.6 0
11:59 997 29.44 826 24.39 0.5 32.9 55 -7.5 18.4 0
12:00 997 29.44 826 24.39 0.4 32.8 54 -7.8 17.9 0
12:01 997 29.44 826 24.39 0.4 32.7 56 -7.5 18.6 0
12:02 997 29.44 826 24.39 0.4 32.8 56 -7.4 18.8 0
12:03 997 29.44 826 24.39 0.5 32.8 57 -7.2 19 0
12:04 997 29.44 826 24.39 0.5 33 56 -7.2 19 0
12:05 997 29.44 826 24.39 0.7 33.2 55 -7.3 18.9 0
12:06 997 29.44 826 24.39 0.7 33.3 55 -7.4 18.6 0
12:07 997 29.44 826 24.39 0.7 33.3 54 -7.5 18.5 0
12:08 997 29.44 826 24.39 0.8 33.5 54 -7.6 18.4 0
12:09 997 29.44 826 24.39 1 33.8 53 -7.5 18.6 0
12:10 997 29.44 826 24.39 1.2 34.1 52 -7.7 18.2 0
12:11 997 29.44 826 24.39 1.2 34.1 52 -7.7 18.1 0
12:12 997 29.44 826 24.39 1.1 34 53 -7.5 18.6 0
12:13 997 29.44 826 24.39 0.9 33.5 54 -7.3 18.8 0
12:14 997 29.44 826 24.39 0.6 33.1 56 -7.3 18.9 0
12:15 997 29.44 826 24.39 0.5 32.9 56 -7.4 18.7 0
12:16 997 29.44 826 24.39 0.5 32.8 56 -7.2 19 0
12:17 997 29.44 826 24.39 0.4 32.7 55 -7.6 18.4 0
12:18 996 29.41 826 24.39 0.3 32.6 57 -7.3 18.8 0
12:19 997 29.44 826 24.39 0.3 32.5 57 -7.3 18.9 0
12:20 997 29.44 826 24.39 0.2 32.4 57 -7.4 18.7 0
12:21 997 29.44 826 24.39 0.2 32.3 56 -7.5 18.5 0
12:22 997 29.44 826 24.39 0.1 32.3 58 -7.2 19.1 0
12:23 997 29.44 826 24.39 0 32.1 59 -7 19.3 0
12:24 996 29.41 826 24.39 -0.1 31.9 60 -6.9 19.6 0
12:25 997 29.44 826 24.39 -0.2 31.7 61 -6.9 19.6 0
12:26 997 29.44 826 24.39 -0.2 31.6 61 -6.8 19.8 0
12:27 997 29.44 826 24.39 -0.2 31.6 61 -6.8 19.7 0
12:28 997 29.44 826 24.39 -0.3 31.5 59 -7.3 18.9 0
12:29 996 29.41 826 24.39 -0.2 31.6 60 -7 19.4 0
12:30 996 29.41 826 24.39 -0.2 31.7 62 -6.7 20 0
12:31 996 29.41 826 24.39 -0.1 31.8 62 -6.5 20.3 0
12:32 996 29.41 826 24.39 -0 32 61 -6.7 20 0
12:33 997 29.44 826 24.39 0.1 32.2 61 -6.6 20.2 0
12:34 997 29.44 826 24.39 0.2 32.4 60 -6.7 19.9 0
12:35 997 29.44 826 24.39 0.3 32.6 59 -6.8 19.8 0
12:36 997 29.44 826 24.39 0.4 32.7 60 -6.6 20.2 0
12:37 997 29.44 826 24.39 0.4 32.8 59 -6.6 20.2 0
12:38 996 29.41 826 24.39 0.5 32.8 59 -6.7 19.9 0
12:39 996 29.41 826 24.39 0.6 33.1 57 -6.9 19.7 0
12:40 996 29.41 826 24.39 0.7 33.3 58 -6.6 20.1 0
12:41 996 29.41 826 24.39 0.7 33.3 59 -6.3 20.7 0
12:42 996 29.41 826 24.39 0.5 32.9 60 -6.4 20.5 0
12:43 996 29.41 826 24.39 0.3 32.6 60 -6.6 20.1 0
12:44 996 29.41 826 24.39 0.4 32.8 59 -6.7 20 0
12:45 996 29.41 826 24.39 0.6 33.1 59 -6.5 20.2 0
12:46 996 29.41 826 24.39 0.7 33.2 59 -6.4 20.5 0
12:47 996 29.41 826 24.39 0.7 33.3 60 -6.2 20.9 0
12:48 996 29.41 826 24.39 0.8 33.5 60 -6.1 20.9 0
12:49 996 29.41 826 24.39 1 33.7 58 -6.3 20.6 0
12:50 996 29.41 826 24.39 1 33.9 58 -6.3 20.6 0
12:51 996 29.41 826 24.39 0.9 33.7 59 -6.3 20.7 0
12:52 996 29.41 825 24.36 0.7 33.3 59 -6.4 20.5 0
12:53 996 29.41 825 24.36 0.4 32.8 60 -6.4 20.4 0
12:54 996 29.41 825 24.36 0.2 32.3 63 -6.1 20.9 0
12:55 996 29.41 825 24.36 -0.1 31.8 65 -5.9 21.3 0
12:56 996 29.41 825 24.36 -0.4 31.3 67 -5.7 21.7 0
12:57 996 29.41 825 24.36 -0.7 30.7 70 -5.6 22 0
12:58 996 29.41 825 24.36 -1 30.2 72 -5.4 22.2 0
12:59 996 29.41 825 24.36 -1.2 29.8 73 -5.5 22.2 0
13:00 996 29.41 825 24.36 -1.4 29.5 74 -5.5 22.1 0
13:01 996 29.41 825 24.36 -1.5 29.3 74 -5.6 21.9 0
13:02 996 29.41 825 24.36 -1.6 29.1 75 -5.5 22.1 0
13:03 996 29.41 825 24.36 -1.6 29.1 75 -5.6 22 0
13:04 996 29.41 825 24.36 -1.7 29 75 -5.5 22.1 0
13:05 996 29.41 825 24.36 -1.7 29 75 -5.5 22.2 0
13:06 996 29.41 825 24.36 -1.7 29 76 -5.4 22.3 0
13:07 996 29.41 825 24.36 -1.7 28.9 76 -5.4 22.3 0
13:08 996 29.41 825 24.36 -1.7 28.9 77 -5.2 22.6 0
13:09 996 29.41 825 24.36 -1.7 28.9 78 -5.1 22.8 0
13:10 996 29.41 825 24.36 -1.7 28.9 78 -5 23 0
13:11 996 29.41 825 24.36 -1.8 28.8 79 -4.9 23.1 0
13:12 996 29.41 825 24.36 -1.8 28.8 80 -4.8 23.3 0
13:13 996 29.41 825 24.36 -1.9 28.6 81 -4.8 23.4 0
13:14 996 29.41 825 24.36 -1.9 28.6 81 -4.7 23.5 0
13:15 996 29.41 825 24.36 -1.9 28.5 82 -4.7 23.6 0
13:16 996 29.41 825 24.36 -1.9 28.5 82 -4.6 23.8 0
13:17 996 29.41 825 24.36 -1.9 28.5 82 -4.6 23.8 0
13:18 996 29.41 825 24.36 -1.9 28.5 83 -4.5 23.9 0
13:19 996 29.41 825 24.36 -1.9 28.5 83 -4.5 24 0
13:20 996 29.41 825 24.36 -1.9 28.6 83 -4.5 24 0
13:21 996 29.41 825 24.36 -1.9 28.7 83 -4.4 24.1 0
13:22 996 29.41 825 24.36 -1.9 28.6 83 -4.4 24.1 0
13:23 996 29.41 825 24.36 -1.9 28.6 83 -4.3 24.2 0
13:24 996 29.41 825 24.36 -1.9 28.7 84 -4.3 24.3 0
13:25 996 29.41 825 24.36 -1.8 28.7 84 -4.2 24.4 0
13:26 996 29.41 825 24.36 -1.7 28.9 83 -4.2 24.5 0
13:27 996 29.41 825 24.36 -1.6 29.1 83 -4.2 24.5 0
13:28 996 29.41 825 24.36 -1.6 29.2 83 -4.1 24.6 0
13:29 996 29.41 825 24.36 -1.5 29.2 82 -4.2 24.5 0
13:30 996 29.41 825 24.36 -1.5 29.3 82 -4.1 24.6 0
13:31 996 29.41 825 24.36 -1.5 29.3 83 -4.1 24.7 0
13:32 996 29.41 825 24.36 -1.5 29.4 82 -4.1 24.6 0
13:33 996 29.41 825 24.36 -1.5 29.4 82 -4.1 24.6 0
13:34 996 29.41 825 24.36 -1.5 29.4 82 -4.1 24.7 0
13:35 996 29.41 825 24.36 -1.4 29.4 83 -4 24.8 0
13:36 996 29.41 825 24.36 -1.4 29.4 83 -4 24.8 0
13:37 996 29.41 825 24.36 -1.5 29.3 83 -4 24.9 0
13:38 996 29.41 825 24.36 -1.5 29.2 84 -4 24.9 0
13:39 996 29.41 825 24.36 -1.6 29.1 84 -4 24.9 0
13:40 996 29.41 825 24.36 -1.6 29.1 84 -3.9 24.9 0
13:41 996 29.41 825 24.36 -1.7 29 85 -3.9 24.9 0
13:42 996 29.41 825 24.36 -1.7 29 85 -3.9 25 0
13:43 996 29.41 825 24.36 -1.6 29.1 84 -3.9 24.9 0
13:44 996 29.41 825 24.36 -1.6 29.2 84 -4 24.9 0
13:45 996 29.41 825 24.36 -1.5 29.3 84 -3.9 25 0
13:46 996 29.41 825 24.36 -1.5 29.3 83 -4 24.8 0
13:47 996 29.41 825 24.36 -1.5 29.3 83 -4 24.8 0
13:48 996 29.41 825 24.36 -1.5 29.3 83 -4 24.8 0
13:49 996 29.41 825 24.36 -1.5 29.3 83 -4 24.9 0
13:50 996 29.41 825 24.36 -1.5 29.3 83 -4 24.8 0
13:51 996 29.41 825 24.36 -1.5 29.3 83 -4 24.8 0
13:52 996 29.41 825 24.36 -1.5 29.3 83 -4 24.9 0
13:53 996 29.41 825 24.36 -1.5 29.2 84 -4 24.9 0
13:54 996 29.41 825 24.36 -1.5 29.2 84 -4 24.9 0
13:55 996 29.41 825 24.36 -1.6 29.2 84 -4 24.8 0
13:56 996 29.41 825 24.36 -1.6 29.2 84 -4 24.8 0
13:57 996 29.41 825 24.36 -1.6 29.1 84 -4 24.8 0
13:58 996 29.41 825 24.36 -1.6 29 84 -4 24.8 0
13:59 996 29.41 825 24.36 -1.6 29.1 84 -3.9 24.9 0
14:00 996 29.41 825 24.36 -1.6 29.1 84 -4 24.8 0
14:01 996 29.41 825 24.36 -1.6 29.2 84 -3.9 25 0
14:02 996 29.41 825 24.36 -1.6 29.1 84 -3.9 25 0
14:03 996 29.41 825 24.36 -1.6 29.2 84 -3.9 25 0
14:04 996 29.41 825 24.36 -1.6 29.2 84 -3.9 25 0
14:05 996 29.41 825 24.36 -1.6 29.1 85 -3.9 25 0
14:06 996 29.41 825 24.36 -1.6 29.1 85 -3.9 25 0
14:07 996 29.41 825 24.36 -1.6 29.1 85 -3.8 25.1 0
14:08 996 29.41 825 24.36 -1.6 29.1 85 -3.8 25.1 0
14:09 996 29.41 825 24.36 -1.6 29.1 85 -3.8 25.1 0
14:10 996 29.41 825 24.36 -1.6 29.1 85 -3.8 25.1 0
14:11 996 29.41 825 24.36 -1.7 29 85 -3.9 25 0
14:12 996 29.41 825 24.36 -1.7 28.9 85 -3.9 25 0
14:13 996 29.41 825 24.36 -1.7 28.9 85 -3.9 25 0
14:14 996 29.41 825 24.36 -1.8 28.8 85 -3.9 25 0
14:15 996 29.41 825 24.36 -1.8 28.8 86 -3.9 25 0
14:16 996 29.41 825 24.36 -1.8 28.8 86 -3.9 25 0
14:17 996 29.41 825 24.36 -1.8 28.8 86 -3.9 25 0
14:18 996 29.41 825 24.36 -1.8 28.7 86 -3.9 25.1 0
14:19 996 29.41 825 24.36 -1.9 28.7 86 -3.9 25.1 0
14:20 996 29.41 825 24.36 -1.8 28.7 86 -3.8 25.1 0
14:21 996 29.41 825 24.36 -1.8 28.7 86 -3.8 25.1 0
14:22 996 29.41 825 24.36 -1.8 28.7 86 -3.8 25.2 0
14:23 996 29.41 825 24.36 -1.8 28.7 86 -3.8 25.1 0
14:24 996 29.41 825 24.36 -1.9 28.6 87 -3.8 25.1 0
14:25 996 29.41 825 24.36 -1.9 28.6 87 -3.8 25.1 0
14:26 996 29.41 825 24.36 -1.9 28.5 87 -3.8 25.1 0
14:27 996 29.41 825 24.36 -1.9 28.6 87 -3.8 25.2 0
14:28 996 29.41 825 24.36 -1.9 28.5 87 -3.8 25.2 0
14:29 996 29.41 825 24.36 -1.9 28.5 87 -3.8 25.1 0
14:30 996 29.41 825 24.36 -1.9 28.6 87 -3.7 25.3 0
14:31 996 29.41 825 24.36 -1.8 28.7 87 -3.7 25.3 0
14:32 996 29.41 825 24.36 -1.8 28.8 87 -3.6 25.5 0
14:33 996 29.41 825 24.36 -1.7 29 87 -3.6 25.6 0
14:34 996 29.41 825 24.36 -1.6 29.1 86 -3.7 25.3 0
14:35 996 29.41 825 24.36 -1.6 29.1 85 -3.8 25.1 0
14:36 996 29.41 825 24.36 -1.7 28.9 85 -3.9 25.1 0
14:37 996 29.41 825 24.36 -1.8 28.8 85 -3.9 25 0
14:38 996 29.41 825 24.36 -1.8 28.7 85 -4 24.8 0
14:39 996 29.41 825 24.36 -1.9 28.6 86 -4 24.9 0
14:40 996 29.41 825 24.36 -1.9 28.6 86 -3.9 25 0
14:41 996 29.41 825 24.36 -1.9 28.6 87 -3.8 25.1 0
14:42 996 29.41 825 24.36 -1.9 28.6 87 -3.8 25.1 0
14:43 996 29.41 825 24.36 -1.9 28.6 87 -3.8 25.1 0
14:44 996 29.41 825 24.36 -1.9 28.6 87 -3.8 25.2 0
14:45 996 29.41 825 24.36 -1.9 28.6 87 -3.8 25.2 0
14:46 996 29.41 825 24.36 -1.9 28.6 87 -3.7 25.3 0
14:47 996 29.41 825 24.36 -1.8 28.8 87 -3.7 25.4 0
14:48 996 29.41 825 24.36 -1.8 28.8 87 -3.7 25.4 0
14:49 996 29.41 825 24.36 -1.7 28.9 87 -3.7 25.4 0
14:50 996 29.41 825 24.36 -1.7 29 86 -3.7 25.4 0
14:51 996 29.41 825 24.36 -1.7 28.9 86 -3.7 25.4 0
14:52 996 29.41 825 24.36 -1.7 28.9 87 -3.7 25.4 0
14:53 996 29.41 825 24.36 -1.7 28.9 87 -3.6 25.5 0
14:54 996 29.41 825 24.36 -1.8 28.8 86 -3.7 25.3 0
14:55 996 29.41 825 24.36 -1.8 28.8 87 -3.7 25.3 0
14:56 996 29.41 825 24.36 -1.7 28.9 87 -3.7 25.4 0
14:57 996 29.41 825 24.36 -1.7 28.9 87 -3.6 25.5 0
14:58 996 29.41 825 24.36 -1.8 28.8 87 -3.7 25.4 0
14:59 996 29.41 825 24.36 -1.7 28.9 87 -3.6 25.5 0
15:00 996 29.41 825 24.36 -1.8 28.8 87 -3.6 25.4 0
15:01 996 29.41 825 24.36 -1.8 28.8 87 -3.7 25.4 0
15:02 996 29.41 825 24.36 -1.8 28.7 87 -3.6 25.4 0
15:03 996 29.41 825 24.36 -1.9 28.6 88 -3.7 25.4 0
15:04 996 29.41 825 24.36 -1.9 28.5 87 -3.8 25.2 0
15:05 996 29.41 825 24.36 -2 28.4 87 -3.9 25 0
15:06 996 29.41 825 24.36 -2 28.4 87 -3.9 25.1 0
15:07 996 29.41 825 24.36 -2.1 28.3 88 -3.8 25.1 0
15:08 996 29.41 825 24.36 -2.1 28.2 88 -3.8 25.1 0
15:09 996 29.41 825 24.36 -2.2 28.1 88 -3.9 25 0
15:10 996 29.41 825 24.36 -2.2 28 88 -3.9 25.1 0
15:11 996 29.41 825 24.36 -2.3 27.9 88 -3.9 24.9 0
15:12 996 29.41 825 24.36 -2.3 27.8 88 -4 24.8 0
15:13 996 29.41 825 24.36 -2.4 27.6 88 -4.1 24.6 0
15:14 996 29.41 825 24.36 -2.5 27.5 89 -4 24.7 0
15:15 996 29.41 825 24.36 -2.6 27.4 90 -3.9 24.9 0
15:16 996 29.41 825 24.36 -2.6 27.4 91 -3.9 25 0
15:17 996 29.41 825 24.36 -2.5 27.4 90 -3.9 25 0
15:18 996 29.41 825 24.36 -2.6 27.3 91 -3.9 24.9 0
15:19 996 29.41 825 24.36 -2.6 27.3 91 -4 24.8 0
15:20 996 29.41 825 24.36 -2.6 27.2 91 -3.9 24.9 0
15:21 996 29.41 825 24.36 -2.6 27.3 91 -3.8 25.1 0
15:22 996 29.41 825 24.36 -2.6 27.4 91 -3.8 25.1 0
15:23 996 29.41 825 24.36 -2.6 27.4 91 -3.9 25 0
15:24 996 29.41 825 24.36 -2.6 27.4 91 -3.9 25.1 0
15:25 996 29.41 825 24.36 -2.5 27.5 91 -3.8 25.2 0
15:26 996 29.41 825 24.36 -2.5 27.5 91 -3.7 25.3 0
15:27 996 29.41 825 24.36 -2.4 27.7 91 -3.7 25.4 0
15:28 996 29.41 825 24.36 -2.3 27.8 91 -3.7 25.4 0
15:29 996 29.41 825 24.36 -2.3 27.8 90 -3.7 25.3 0
15:30 996 29.41 825 24.36 -2.3 27.8 90 -3.7 25.3 0
15:31 996 29.41 825 24.36 -2.4 27.8 90 -3.8 25.2 0
15:32 996 29.41 825 24.36 -2.4 27.7 89 -4 24.9 0
15:33 996 29.41 825 24.36 -2.5 27.4 89 -4.2 24.5 0
15:34 996 29.41 825 24.36 -2.6 27.3 90 -4.1 24.7 0
15:35 996 29.41 825 24.36 -2.6 27.2 90 -4 24.8 0
15:36 996 29.41 825 24.36 -2.7 27.2 91 -3.9 25 0
15:37 996 29.41 825 24.36 -2.6 27.3 91 -3.8 25.1 0
15:38 996 29.41 825 24.36 -2.6 27.3 91 -3.8 25.1 0
15:39 996 29.41 825 24.36 -2.6 27.3 92 -3.8 25.2 0
15:40 996 29.41 825 24.36 -2.6 27.3 91 -3.8 25.1 0
15:41 996 29.41 825 24.36 -2.6 27.4 92 -3.8 25.2 0
15:42 996 29.41 825 24.36 -2.6 27.4 92 -3.8 25.2 0
15:43 996 29.41 825 24.36 -2.5 27.4 92 -3.7 25.3 0
15:44 996 29.41 825 24.36 -2.5 27.5 91 -3.7 25.3 0
15:45 996 29.41 825 24.36 -2.5 27.4 91 -3.8 25.1 0
15:46 996 29.41 825 24.36 -2.6 27.3 90 -4 24.8 0
15:47 996 29.41 825 24.36 -2.8 27 90 -4.2 24.5 0
15:48 996 29.41 825 24.36 -2.9 26.8 90 -4.2 24.4 0
15:49 996 29.41 825 24.36 -2.9 26.8 92 -4.1 24.6 0
15:50 996 29.41 825 24.36 -2.9 26.8 92 -4 24.8 0
15:51 996 29.41 825 24.36 -2.8 26.9 92 -3.9 25 0
15:52 996 29.41 825 24.36 -2.8 27 92 -3.9 25 0
15:53 996 29.41 825 24.36 -2.7 27.1 92 -3.8 25.1 0
15:54 996 29.41 825 24.36 -2.7 27.2 92 -3.8 25.1 0
15:55 996 29.41 825 24.36 -2.7 27.2 92 -3.8 25.1 0
15:56 996 29.41 825 24.36 -2.7 27.2 91 -3.9 25 0
15:57 996 29.41 825 24.36 -2.7 27.2 90 -4.1 24.7 0
15:58 996 29.41 825 24.36 -2.8 26.9 90 -4.2 24.4 0
15:59 996 29.41 825 24.36 -2.9 26.8 91 -4.1 24.5 0
16:00 996 29.41 825 24.36 -2.9 26.8 92 -4.1 24.6 0
16:01 996 29.41 825 24.36 -2.9 26.8 92 -4 24.8 0
16:02 996 29.41 825 24.36 -2.9 26.8 92 -4 24.9 0
16:03 996 29.41 825 24.36 -2.8 26.9 92 -3.9 24.9 0
16:04 996 29.41 825 24.36 -2.9 26.7 91 -4.2 24.5 0
16:05 996 29.41 825 24.36 -2.9 26.7 92 -4 24.8 0
16:06 996 29.41 825 24.36 -2.9 26.7 91 -4.2 24.5 0
16:07 996 29.41 825 24.36 -3.1 26.4 91 -4.3 24.2 0
16:08 996 29.41 825 24.36 -3.1 26.3 92 -4.3 24.3 0
16:09 996 29.41 825 24.36 -3.2 26.2 92 -4.3 24.3 0
16:10 996 29.41 825 24.36 -3.2 26.2 93 -4.2 24.4 0
16:11 996 29.41 825 24.36 -3.2 26.2 93 -4.2 24.4 0
16:12 996 29.41 825 24.36 -3.2 26.2 93 -4.2 24.5 0
16:13 996 29.41 825 24.36 -3.1 26.3 93 -4.1 24.7 0
16:14 996 29.41 825 24.36 -3.1 26.5 93 -4 24.7 0
16:15 996 29.41 825 24.36 -3.1 26.5 93 -4 24.8 0
16:16 996 29.41 825 24.36 -3 26.5 94 -3.9 24.9 0
16:17 996 29.41 825 24.36 -3 26.6 94 -3.9 25 0
16:18 996 29.41 825 24.36 -2.9 26.7 94 -3.8 25.2 0
16:19 996 29.41 825 24.36 -2.8 26.9 94 -3.7 25.3 0
16:20 996 29.41 825 24.36 -2.8 26.9 94 -3.7 25.3 0
16:21 996 29.41 825 24.36 -2.8 26.9 93 -3.8 25.2 0
16:22 996 29.41 825 24.36 -2.9 26.8 92 -4 24.8 0
16:23 996 29.41 825 24.36 -3 26.5 91 -4.3 24.2 0
16:24 996 29.41 825 24.36 -3.2 26.3 92 -4.3 24.2 0
16:25 996 29.41 825 24.36 -3.2 26.3 92 -4.2 24.4 0
16:26 996 29.41 825 24.36 -3.2 26.3 93 -4.2 24.4 0
16:27 996 29.41 825 24.36 -3.2 26.2 93 -4.2 24.4 0
16:28 996 29.41 825 24.36 -3.2 26.3 93 -4.2 24.4 0
16:29 996 29.41 825 24.36 -3.2 26.2 93 -4.3 24.3 0
16:30 996 29.41 825 24.36 -3.2 26.2 93 -4.2 24.4 0
16:31 996 29.41 825 24.36 -3.2 26.3 93 -4.1 24.5 0
16:32 996 29.41 825 24.36 -3.2 26.3 93 -4.1 24.5 0
16:33 996 29.41 825 24.36 -3.1 26.3 93 -4.1 24.6 0
16:34 996 29.41 825 24.36 -3.1 26.3 93 -4.1 24.6 0
16:35 996 29.41 825 24.36 -3.1 26.3 93 -4.1 24.7 0
16:36 996 29.41 825 24.36 -3.1 26.4 94 -4 24.8 0
16:37 996 29.41 825 24.36 -3.1 26.5 94 -4 24.9 0
16:38 996 29.41 825 24.36 -3.1 26.4 93 -4 24.8 0
16:39 996 29.41 825 24.36 -3.1 26.4 93 -4 24.7 0
16:40 996 29.41 825 24.36 -3.1 26.4 94 -4 24.8 0
16:41 996 29.41 825 24.36 -3.1 26.4 94 -4 24.8 0
16:42 996 29.41 825 24.36 -3.1 26.4 94 -4 24.8 0
16:43 996 29.41 825 24.36 -3.1 26.4 94 -4 24.9 0
16:44 996 29.41 825 24.36 -3.1 26.5 94 -3.9 25 0
16:45 996 29.41 825 24.36 -3.1 26.5 94 -3.9 25 0
16:46 996 29.41 825 24.36 -3.1 26.5 94 -3.9 25 0
16:47 996 29.41 825 24.36 -3.1 26.4 94 -3.9 25 0
16:48 996 29.41 825 24.36 -3.1 26.5 94 -3.9 25 0
16:49 996 29.41 825 24.36 -3 26.5 94 -3.9 25.1 0
16:50 996 29.41 825 24.36 -3.1 26.4 94 -3.9 25 0
16:51 996 29.41 825 24.36 -3.1 26.5 94 -3.8 25.1 0
16:52 996 29.41 825 24.36 -3.1 26.5 95 -3.8 25.1 0
16:53 996 29.41 825 24.36 -3 26.6 95 -3.7 25.3 0
16:54 996 29.41 825 24.36 -3 26.6 95 -3.7 25.3 0
16:55 996 29.41 825 24.36 -3 26.7 95 -3.7 25.4 0
16:56 996 29.41 825 24.36 -3 26.7 95 -3.7 25.4 0
16:57 996 29.41 825 24.36 -2.9 26.8 95 -3.6 25.5 0
16:58 996 29.41 825 24.36 -2.9 26.8 95 -3.6 25.5 0
16:59 996 29.41 825 24.36 -2.9 26.8 95 -3.6 25.5 0
17:00 996 29.41 825 24.36 -2.9 26.8 95 -3.6 25.5 0
17:01 996 29.41 825 24.36 -2.9 26.8 94 -3.7 25.3 0
17:02 996 29.41 825 24.36 -3.1 26.4 93 -4.1 24.6 0
17:03 996 29.41 825 24.36 -3.3 26.1 93 -4.3 24.2 0
17:04 996 29.41 825 24.36 -3.4 25.9 93 -4.3 24.2 0
17:05 996 29.41 825 24.36 -3.4 25.8 94 -4.3 24.2 0
17:06 996 29.41 825 24.36 -3.5 25.7 94 -4.4 24.2 0
17:07 996 29.41 825 24.36 -3.5 25.7 94 -4.3 24.3 0
17:08 996 29.41 825 24.36 -3.4 25.8 95 -4.2 24.4 0
17:09 996 29.41 825 24.36 -3.4 25.8 95 -4.1 24.6 0
17:10 996 29.41 825 24.36 -3.4 25.9 95 -4.1 24.7 0
17:11 996 29.41 825 24.36 -3.3 26.1 95 -4 24.9 0
17:12 996 29.41 825 24.36 -3.2 26.2 95 -3.9 25 0
17:13 996 29.41 825 24.36 -3.2 26.2 95 -3.9 25 0
17:14 996 29.41 825 24.36 -3.2 26.2 95 -3.9 24.9 0
17:15 996 29.41 825 24.36 -3.2 26.2 95 -4 24.9 0
17:16 996 29.41 826 24.39 -3.2 26.2 95 -3.9 24.9 0
17:17 996 29.41 825 24.36 -3.3 26.1 95 -4 24.8 0
17:18 996 29.41 825 24.36 -3.3 26.1 95 -4 24.9 0
17:19 996 29.41 825 24.36 -3.2 26.2 95 -3.9 24.9 0
17:20 996 29.41 825 24.36 -3.2 26.2 95 -3.9 25 0
17:21 996 29.41 825 24.36 -3.2 26.2 95 -3.9 24.9 0
17:22 996 29.41 825 24.36 -3.2 26.2 95 -3.9 24.9 0
17:23 996 29.41 825 24.36 -3.2 26.2 95 -3.9 25 0
17:24 996 29.41 825 24.36 -3.2 26.3 95 -3.8 25.1 0
17:25 996 29.41 825 24.36 -3.2 26.3 95 -3.9 25 0
17:26 996 29.41 825 24.36 -3.2 26.3 95 -3.9 25 0
17:27 996 29.41 825 24.36 -3.2 26.2 95 -3.9 24.9 0
17:28 996 29.41 825 24.36 -3.2 26.2 95 -3.9 24.9 0
17:29 996 29.41 825 24.36 -3.2 26.2 95 -4 24.9 0
17:30 996 29.41 825 24.36 -3.3 26.1 95 -4 24.8 0
17:31 996 29.41 825 24.36 -3.3 26.1 95 -4 24.8 0
17:32 996 29.41 825 24.36 -3.3 26.1 95 -4 24.8 0
17:33 996 29.41 825 24.36 -3.3 26.1 95 -3.9 24.9 0
17:34 996 29.41 826 24.39 -3.2 26.2 95 -3.9 24.9 0
17:35 996 29.41 826 24.39 -3.2 26.3 95 -3.8 25.1 0
17:36 996 29.41 826 24.39 -3.2 26.3 95 -3.9 25.1 0
17:37 996 29.41 826 24.39 -3.1 26.3 95 -3.8 25.1 0
17:38 996 29.41 826 24.39 -3.1 26.4 95 -3.8 25.2 0
17:39 996 29.41 826 24.39 -3.1 26.4 95 -3.8 25.2 0
17:40 996 29.41 826 24.39 -3.1 26.4 95 -3.8 25.1 0
17:41 996 29.41 826 24.39 -3.1 26.4 95 -3.8 25.2 0
17:42 996 29.41 826 24.39 -3.1 26.5 95 -3.8 25.2 0
17:43 996 29.41 826 24.39 -3.1 26.4 95 -3.8 25.1 0
17:44 996 29.41 826 24.39 -3.1 26.4 95 -3.8 25.2 0
17:45 996 29.41 826 24.39 -3.1 26.4 95 -3.8 25.1 0
17:46 996 29.41 826 24.39 -3.1 26.4 95 -3.8 25.1 0
17:47 996 29.41 826 24.39 -3.1 26.4 95 -3.8 25.1 0
17:48 996 29.41 826 24.39 -3.1 26.4 95 -3.8 25.1 0
17:49 997 29.44 826 24.39 -3.2 26.3 95 -3.9 25 0
17:50 997 29.44 826 24.39 -3.1 26.4 95 -3.8 25.2 0
17:51 997 29.44 826 24.39 -3.2 26.3 95 -3.9 25 0
17:52 997 29.44 826 24.39 -3.2 26.3 95 -3.9 25.1 0
17:53 997 29.44 826 24.39 -3.2 26.3 95 -3.8 25.1 0
17:54 997 29.44 826 24.39 -3.1 26.3 95 -3.8 25.2 0
17:55 997 29.44 826 24.39 -3.2 26.3 95 -3.8 25.1 0
17:56 997 29.44 826 24.39 -3.1 26.4 96 -3.8 25.2 0
17:57 997 29.44 826 24.39 -3.2 26.3 96 -3.8 25.2 0
17:58 997 29.44 826 24.39 -3.1 26.3 96 -3.7 25.3 0
17:59 997 29.44 826 24.39 -3.2 26.3 96 -3.8 25.2 0
18:00 997 29.44 826 24.39 -3.2 26.3 96 -3.8 25.2 0
18:01 997 29.44 826 24.39 -3.2 26.2 96 -3.8 25.2 0
18:02 997 29.44 826 24.39 -3.2 26.3 96 -3.8 25.2 0
18:03 997 29.44 826 24.39 -3.2 26.3 96 -3.8 25.2 0
18:04 997 29.44 826 24.39 -3.2 26.3 96 -3.8 25.2 0
18:05 997 29.44 826 24.39 -3.2 26.3 96 -3.7 25.3 0
18:06 997 29.44 826 24.39 -3.2 26.2 96 -3.8 25.2 0
18:07 997 29.44 826 24.39 -3.2 26.2 96 -3.8 25.2 0
18:08 997 29.44 826 24.39 -3.2 26.2 96 -3.8 25.2 0
18:09 997 29.44 826 24.39 -3.2 26.3 96 -3.7 25.3 0
18:10 997 29.44 826 24.39 -3.2 26.2 96 -3.7 25.3 0
18:11 997 29.44 826 24.39 -3.2 26.3 96 -3.7 25.3 0
18:12 997 29.44 826 24.39 -3.2 26.2 96 -3.8 25.2 0
18:13 997 29.44 826 24.39 -3.2 26.3 96 -3.7 25.3 0
18:14 997 29.44 826 24.39 -3.2 26.2 96 -3.7 25.3 0
18:15 997 29.44 826 24.39 -3.2 26.3 96 -3.7 25.3 0
18:16 997 29.44 826 24.39 -3.2 26.3 96 -3.7 25.3 0
18:17 997 29.44 826 24.39 -3.2 26.3 96 -3.7 25.3 0
18:18 997 29.44 826 24.39 -3.2 26.2 96 -3.7 25.3 0
18:19 997 29.44 826 24.39 -3.2 26.2 96 -3.7 25.3 0
18:20 997 29.44 826 24.39 -3.2 26.2 96 -3.7 25.3 0
18:21 997 29.44 826 24.39 -3.2 26.2 96 -3.7 25.3 0
18:22 997 29.44 826 24.39 -3.2 26.3 96 -3.7 25.4 0
18:23 997 29.44 826 24.39 -3.2 26.3 96 -3.7 25.4 0
18:24 997 29.44 826 24.39 -3.2 26.3 96 -3.7 25.4 0
18:25 997 29.44 826 24.39 -3.1 26.3 97 -3.6 25.5 0
18:26 997 29.44 826 24.39 -3.1 26.4 97 -3.6 25.5 0
18:27 997 29.44 826 24.39 -3.1 26.4 97 -3.6 25.5 0
18:28 997 29.44 826 24.39 -3.1 26.4 97 -3.6 25.6 0
18:29 997 29.44 826 24.39 -3.1 26.4 97 -3.6 25.6 0
18:30 997 29.44 826 24.39 -3.1 26.4 97 -3.6 25.6 0
18:31 997 29.44 826 24.39 -3.1 26.5 97 -3.5 25.6 0
18:32 997 29.44 826 24.39 -3.1 26.5 97 -3.5 25.7 0
18:33 997 29.44 826 24.39 -3.1 26.5 97 -3.5 25.7 0
18:34 997 29.44 826 24.39 -3.1 26.5 97 -3.5 25.7 0
18:35 997 29.44 826 24.39 -3 26.5 97 -3.5 25.7 0
18:36 997 29.44 826 24.39 -3 26.5 97 -3.5 25.7 0
18:37 997 29.44 826 24.39 -3 26.5 97 -3.5 25.7 0
18:38 997 29.44 826 24.39 -3 26.6 97 -3.5 25.8 0
18:39 997 29.44 826 24.39 -3 26.6 97 -3.5 25.8 0
18:40 997 29.44 826 24.39 -3.1 26.5 97 -3.5 25.7 0
18:41 997 29.44 826 24.39 -3 26.5 97 -3.5 25.7 0
18:42 997 29.44 826 24.39 -3.1 26.5 97 -3.5 25.7 0
18:43 997 29.44 826 24.39 -3.1 26.5 97 -3.5 25.7 0
18:44 997 29.44 826 24.39 -3 26.6 97 -3.5 25.7 0
18:45 997 29.44 826 24.39 -3 26.5 97 -3.5 25.7 0
18:46 997 29.44 826 24.39 -3 26.5 97 -3.5 25.7 0
18:47 997 29.44 826 24.39 -3.1 26.5 97 -3.5 25.7 0
18:48 997 29.44 826 24.39 -3.1 26.5 97 -3.5 25.7 0
18:49 997 29.44 826 24.39 -3.1 26.5 97 -3.5 25.7 0
18:50 997 29.44 826 24.39 -3.1 26.5 97 -3.5 25.7 0
18:51 997 29.44 826 24.39 -3.1 26.5 97 -3.5 25.7 0
18:52 997 29.44 826 24.39 -3.1 26.5 97 -3.5 25.7 0
18:53 997 29.44 826 24.39 -3.1 26.5 97 -3.5 25.7 0
18:54 997 29.44 826 24.39 -3.1 26.5 97 -3.5 25.7 0
18:55 997 29.44 826 24.39 -3.1 26.4 97 -3.5 25.7 0
18:56 997 29.44 826 24.39 -3.1 26.4 97 -3.5 25.7 0
18:57 997 29.44 826 24.39 -3.1 26.4 97 -3.5 25.7 0
18:58 997 29.44 826 24.39 -3.1 26.4 97 -3.5 25.7 0
18:59 997 29.44 826 24.39 -3.1 26.5 97 -3.5 25.7 0
19:00 997 29.44 826 24.39 -3.1 26.4 97 -3.5 25.7 0
19:01 997 29.44 826 24.39 -3.1 26.4 97 -3.5 25.6 0
19:02 997 29.44 826 24.39 -3.1 26.5 97 -3.5 25.7 0
19:03 997 29.44 826 24.39 -3.1 26.3 97 -3.6 25.6 0
19:04 997 29.44 826 24.39 -3.1 26.4 97 -3.5 25.6 0
19:05 997 29.44 826 24.39 -3.1 26.3 97 -3.6 25.6 0
19:06 997 29.44 826 24.39 -3.1 26.3 97 -3.6 25.6 0
19:07 997 29.44 826 24.39 -3.1 26.3 97 -3.5 25.6 0
19:08 997 29.44 826 24.39 -3.1 26.3 97 -3.5 25.6 0
19:09 997 29.44 826 24.39 -3.1 26.4 97 -3.5 25.6 0
19:10 997 29.44 826 24.39 -3.2 26.3 97 -3.6 25.6 0
19:11 997 29.44 826 24.39 -3.2 26.3 97 -3.6 25.6 0
19:12 997 29.44 826 24.39 -3.2 26.3 97 -3.6 25.6 0
19:13 997 29.44 826 24.39 -3.2 26.3 97 -3.6 25.6 0
19:14 997 29.44 826 24.39 -3.1 26.3 97 -3.6 25.6 0
19:15 997 29.44 826 24.39 -3.2 26.3 97 -3.6 25.6 0
19:16 997 29.44 826 24.39 -3.2 26.3 97 -3.6 25.6 0
19:17 997 29.44 826 24.39 -3.2 26.3 97 -3.6 25.5 0
19:18 997 29.44 826 24.39 -3.2 26.2 97 -3.6 25.5 0
19:19 997 29.44 826 24.39 -3.2 26.3 97 -3.6 25.6 0
19:20 997 29.44 826 24.39 -3.2 26.3 97 -3.6 25.6 0
19:21 997 29.44 826 24.39 -3.2 26.2 97 -3.6 25.5 0
19:22 997 29.44 826 24.39 -3.2 26.3 97 -3.6 25.6 0
19:23 997 29.44 826 24.39 -3.2 26.3 97 -3.6 25.6 0
19:24 997 29.44 826 24.39 -3.2 26.3 97 -3.5 25.7 0
19:25 997 29.44 826 24.39 -3.2 26.3 97 -3.5 25.6 0
19:26 997 29.44 826 24.39 -3.2 26.2 97 -3.6 25.5 0
19:27 997 29.44 826 24.39 -3.2 26.3 97 -3.6 25.5 0
19:28 997 29.44 826 24.39 -3.2 26.3 97 -3.5 25.6 0
19:29 997 29.44 826 24.39 -3.2 26.2 97 -3.6 25.6 0
19:30 997 29.44 826 24.39 -3.2 26.3 97 -3.5 25.6 0
19:31 997 29.44 826 24.39 -3.2 26.3 97 -3.5 25.6 0
19:32 997 29.44 826 24.39 -3.2 26.3 97 -3.6 25.6 0
19:33 997 29.44 826 24.39 -3.2 26.3 97 -3.5 25.6 0
19:34 997 29.44 826 24.39 -3.2 26.3 97 -3.6 25.6 0
19:35 997 29.44 826 24.39 -3.2 26.3 97 -3.6 25.6 0
19:36 997 29.44 826 24.39 -3.2 26.2 97 -3.6 25.5 0
19:37 997 29.44 826 24.39 -3.2 26.2 97 -3.6 25.6 0
19:38 997 29.44 826 24.39 -3.2 26.2 97 -3.6 25.6 0
19:39 997 29.44 826 24.39 -3.2 26.3 97 -3.6 25.6 0
19:40 997 29.44 826 24.39 -3.2 26.3 97 -3.6 25.6 0
19:41 997 29.44 826 24.39 -3.2 26.2 97 -3.6 25.5 0
19:42 997 29.44 826 24.39 -3.2 26.2 97 -3.6 25.5 0
19:43 997 29.44 826 24.39 -3.3 26.1 97 -3.7 25.4 0
19:44 997 29.44 826 24.39 -3.3 26.1 97 -3.6 25.4 0
19:45 997 29.44 826 24.39 -3.3 26.1 97 -3.7 25.3 0
19:46 997 29.44 826 24.39 -3.3 26.1 97 -3.7 25.3 0
19:47 997 29.44 826 24.39 -3.3 26 97 -3.7 25.3 0
19:48 997 29.44 826 24.39 -3.3 26 97 -3.7 25.3 0
19:49 997 29.44 826 24.39 -3.3 26 97 -3.7 25.3 0
19:50 997 29.44 826 24.39 -3.3 26 97 -3.7 25.3 0
19:51 997 29.44 826 24.39 -3.3 26 97 -3.7 25.3 0
19:52 997 29.44 826 24.39 -3.3 26 97 -3.7 25.3 0
19:53 997 29.44 826 24.39 -3.3 26 97 -3.8 25.2 0
19:54 997 29.44 826 24.39 -3.3 26 97 -3.7 25.3 0
19:55 997 29.44 826 24.39 -3.4 25.9 97 -3.8 25.2 0
19:56 997 29.44 826 24.39 -3.4 25.9 97 -3.8 25.2 0
19:57 997 29.44 826 24.39 -3.4 25.9 97 -3.8 25.2 0
19:58 997 29.44 826 24.39 -3.4 25.9 97 -3.8 25.2 0
19:59 997 29.44 826 24.39 -3.4 25.8 97 -3.8 25.1 0
20:00 997 29.44 827 24.42 -3.4 25.8 97 -3.8 25.1 0
20:01 997 29.44 827 24.42 -3.5 25.7 97 -3.9 25 0
20:02 997 29.44 827 24.42 -3.5 25.7 97 -3.9 24.9 0
20:03 997 29.44 827 24.42 -3.5 25.7 97 -3.9 24.9 0
20:04 997 29.44 827 24.42 -3.6 25.5 97 -4.1 24.7 0
20:05 997 29.44 827 24.42 -3.6 25.4 97 -4.1 24.6 0
20:06 997 29.44 827 24.42 -3.7 25.4 97 -4.1 24.5 0
20:07 997 29.44 827 24.42 -3.7 25.3 97 -4.2 24.5 0
20:08 997 29.44 827 24.42 -3.8 25.2 97 -4.2 24.4 0
20:09 997 29.44 827 24.42 -3.8 25.1 97 -4.3 24.3 0
20:10 997 29.44 827 24.42 -3.8 25.1 97 -4.3 24.2 0
20:11 997 29.44 827 24.42 -3.9 25 97 -4.4 24.1 0
20:12 997 29.44 827 24.42 -3.9 24.9 97 -4.4 24.1 0
20:13 997 29.44 827 24.42 -4 24.9 97 -4.4 24 0
20:14 997 29.44 827 24.42 -4 24.8 97 -4.4 24 0
20:15 997 29.44 827 24.42 -4 24.8 97 -4.5 24 0
20:16 997 29.44 827 24.42 -4 24.7 97 -4.5 23.9 0
20:17 997 29.44 827 24.42 -4 24.7 97 -4.5 23.9 0
20:18 998 29.47 827 24.42 -4.1 24.7 97 -4.5 23.8 0
20:19 998 29.47 827 24.42 -4.1 24.7 97 -4.5 23.8 0
20:20 998 29.47 827 24.42 -4.1 24.6 97 -4.6 23.8 0
20:21 998 29.47 827 24.42 -4.1 24.6 97 -4.6 23.8 0
20:22 998 29.47 827 24.42 -4.1 24.6 97 -4.6 23.8 0
20:23 998 29.47 827 24.42 -4.1 24.6 97 -4.6 23.8 0
20:24 998 29.47 827 24.42 -4.1 24.5 97 -4.6 23.7 0
20:25 998 29.47 827 24.42 -4.1 24.5 97 -4.6 23.7 0
20:26 998 29.47 827 24.42 -4.2 24.5 97 -4.6 23.7 0
20:27 998 29.47 827 24.42 -4.2 24.5 97 -4.6 23.7 0
20:28 998 29.47 827 24.42 -4.2 24.5 97 -4.6 23.7 0
20:29 998 29.47 827 24.42 -4.2 24.5 97 -4.6 23.7 0
20:30 998 29.47 827 24.42 -4.2 24.5 97 -4.6 23.7 0
20:31 998 29.47 827 24.42 -4.2 24.5 97 -4.6 23.7 0
20:32 998 29.47 827 24.42 -4.2 24.5 97 -4.6 23.7 0
20:33 998 29.47 827 24.42 -4.2 24.5 97 -4.6 23.7 0
20:34 998 29.47 827 24.42 -4.2 24.5 97 -4.6 23.7 0
20:35 998 29.47 827 24.42 -4.2 24.5 97 -4.6 23.7 0
20:36 998 29.47 827 24.42 -4.2 24.4 97 -4.7 23.6 0
20:37 998 29.47 827 24.42 -4.2 24.4 97 -4.7 23.6 0
20:38 998 29.47 827 24.42 -4.2 24.4 97 -4.7 23.6 0
20:39 998 29.47 827 24.42 -4.2 24.4 97 -4.7 23.6 0
20:40 998 29.47 827 24.42 -4.2 24.5 97 -4.6 23.7 0
20:41 998 29.47 827 24.42 -4.2 24.4 97 -4.7 23.6 0
20:42 998 29.47 827 24.42 -4.3 24.3 97 -4.7 23.5 0
20:43 998 29.47 827 24.42 -4.2 24.4 97 -4.7 23.5 0
20:44 998 29.47 827 24.42 -4.3 24.3 97 -4.7 23.5 0
20:45 998 29.47 827 24.42 -4.3 24.3 97 -4.8 23.4 0
20:46 998 29.47 827 24.42 -4.3 24.3 97 -4.8 23.4 0
20:47 998 29.47 827 24.42 -4.4 24.2 96 -4.9 23.3 0
20:48 998 29.47 827 24.42 -4.4 24.1 96 -4.9 23.2 0
20:49 998 29.47 827 24.42 -4.4 24 96 -4.9 23.1 0
20:50 998 29.47 827 24.42 -4.5 24 96 -5 23.1 0
20:51 998 29.47 827 24.42 -4.5 23.9 96 -5 22.9 0
20:52 998 29.47 827 24.42 -4.5 23.9 96 -5 23 0
20:53 998 29.47 827 24.42 -4.6 23.8 96 -5.1 22.9 0
20:54 998 29.47 828 24.45 -4.6 23.8 96 -5.1 22.8 0
20:55 998 29.47 828 24.45 -4.6 23.7 96 -5.1 22.8 0
20:56 998 29.47 828 24.45 -4.6 23.7 96 -5.1 22.8 0
20:57 998 29.47 828 24.45 -4.6 23.7 96 -5.1 22.8 0
20:58 998 29.47 828 24.45 -4.6 23.6 96 -5.2 22.7 0
20:59 998 29.47 828 24.45 -4.7 23.6 96 -5.2 22.7 0
21:00 998 29.47 828 24.45 -4.7 23.5 96 -5.2 22.6 0
21:01 998 29.47 828 24.45 -4.7 23.5 96 -5.3 22.5 0
21:02 998 29.47 828 24.45 -4.8 23.4 96 -5.3 22.4 0
21:03 999 29.5 828 24.45 -4.8 23.4 96 -5.3 22.4 0
21:04 999 29.5 828 24.45 -4.8 23.3 96 -5.4 22.3 0
21:05 999 29.5 828 24.45 -4.9 23.2 96 -5.5 22.2 0
21:06 999 29.5 828 24.45 -5 23.1 96 -5.6 22 0
21:07 999 29.5 828 24.45 -5 23 96 -5.6 21.9 0
21:08 999 29.5 828 24.45 -5.1 22.9 96 -5.6 21.8 0
21:09 999 29.5 828 24.45 -5.1 22.8 96 -5.7 21.7 0
21:10 999 29.5 828 24.45 -5.2 22.7 95 -5.8 21.5 0
21:11 999 29.5 828 24.45 -5.2 22.6 95 -5.9 21.4 0
21:12 999 29.5 828 24.45 -5.3 22.5 95 -5.9 21.4 0
21:13 999 29.5 828 24.45 -5.4 22.3 95 -6 21.2 0
21:14 999 29.5 828 24.45 -5.4 22.3 95 -6 21.2 0
21:15 999 29.5 828 24.45 -5.5 22.2 95 -6.1 21 0
21:16 999 29.5 828 24.45 -5.5 22.1 95 -6.1 21 0
21:17 999 29.5 828 24.45 -5.5 22.1 95 -6.1 21 0
21:18 999 29.5 828 24.45 -5.5 22 95 -6.1 20.9 0
21:19 999 29.5 828 24.45 -5.6 22 95 -6.2 20.8 0
21:20 999 29.5 828 24.45 -5.6 21.9 95 -6.3 20.7 0
21:21 999 29.5 828 24.45 -5.6 21.8 95 -6.3 20.7 0
21:22 999 29.5 828 24.45 -5.7 21.8 95 -6.3 20.6 0
21:23 999 29.5 828 24.45 -5.7 21.7 95 -6.3 20.6 0
21:24 999 29.5 828 24.45 -5.7 21.7 95 -6.4 20.6 0
21:25 999 29.5 828 24.45 -5.8 21.6 95 -6.4 20.5 0
21:26 999 29.5 828 24.45 -5.7 21.7 95 -6.4 20.5 0
21:27 999 29.5 828 24.45 -5.8 21.6 95 -6.4 20.4 0
21:28 999 29.5 829 24.48 -5.8 21.6 95 -6.4 20.5 0
21:29 999 29.5 829 24.48 -5.8 21.6 95 -6.4 20.5 0
21:30 999 29.5 829 24.48 -5.8 21.6 95 -6.4 20.4 0
21:31 999 29.5 829 24.48 -5.8 21.6 95 -6.4 20.4 0
21:32 999 29.5 829 24.48 -5.8 21.5 95 -6.5 20.3 0
21:33 1000 29.53 829 24.48 -5.8 21.6 95 -6.4 20.4 0
21:34 1000 29.53 829 24.48 -5.8 21.5 95 -6.5 20.3 0
21:35 1000 29.53 829 24.48 -5.8 21.5 95 -6.5 20.2 0
21:36 1000 29.53 829 24.48 -5.9 21.4 95 -6.6 20.2 0
21:37 1000 29.53 829 24.48 -5.9 21.4 95 -6.6 20.1 0
21:38 1000 29.53 829 24.48 -5.9 21.3 95 -6.6 20.1 0
21:39 1000 29.53 829 24.48 -6 21.2 95 -6.7 20 0
21:40 1000 29.53 829 24.48 -6 21.2 95 -6.7 20 0
21:41 1000 29.53 829 24.48 -6 21.2 95 -6.7 19.9 0
21:42 1000 29.53 829 24.48 -6 21.2 95 -6.7 20 0
21:43 1000 29.53 829 24.48 -6 21.2 95 -6.7 20 0
21:44 1000 29.53 829 24.48 -6 21.1 95 -6.7 19.9 0
21:45 1000 29.53 829 24.48 -6 21.1 95 -6.7 19.9 0
21:46 1000 29.53 829 24.48 -6.1 21.1 95 -6.7 19.9 0
21:47 1000 29.53 829 24.48 -6.1 21 95 -6.8 19.8 0
21:48 1000 29.53 829 24.48 -6.1 21.1 95 -6.8 19.8 0
21:49 1000 29.53 829 24.48 -6.1 21 95 -6.8 19.8 0
21:50 1000 29.53 829 24.48 -6.1 21.1 95 -6.8 19.8 0
21:51 1000 29.53 829 24.48 -6.1 21 95 -6.8 19.8 0
21:52 1000 29.53 829 24.48 -6.1 21 95 -6.8 19.7 0
21:53 1000 29.53 829 24.48 -6.2 20.9 95 -6.9 19.6 0
21:54 1000 29.53 829 24.48 -6.2 20.9 95 -6.9 19.6 0
21:55 1000 29.53 830 24.51 -6.2 20.9 95 -6.9 19.6 0
21:56 1000 29.53 830 24.51 -6.2 20.9 95 -6.9 19.6 0
21:57 1000 29.53 830 24.51 -6.2 20.8 95 -6.9 19.6 0
21:58 1000 29.53 830 24.51 -6.2 20.8 95 -6.9 19.5 0
21:59 1001 29.56 830 24.51 -6.2 20.8 95 -6.9 19.5 0
22:00 1001 29.56 830 24.51 -6.3 20.7 95 -7 19.5 0
22:01 1001 29.56 830 24.51 -6.3 20.7 95 -7 19.4 0
22:02 1001 29.56 830 24.51 -6.3 20.7 95 -7 19.4 0
22:03 1001 29.56 830 24.51 -6.4 20.6 94 -7.1 19.2 0
22:04 1001 29.56 830 24.51 -6.4 20.6 94 -7.1 19.2 0
22:05 1001 29.56 830 24.51 -6.4 20.5 94 -7.2 19.1 0
22:06 1001 29.56 830 24.51 -6.4 20.5 94 -7.2 19.1 0
22:07 1001 29.56 830 24.51 -6.4 20.4 94 -7.2 19 0
22:08 1001 29.56 830 24.51 -6.4 20.4 94 -7.2 19 0
22:09 1001 29.56 830 24.51 -6.5 20.3 94 -7.3 18.9 0
22:10 1001 29.56 830 24.51 -6.5 20.3 94 -7.2 19 0
22:11 1001 29.56 830 24.51 -6.5 20.3 94 -7.3 18.9 0
22:12 1001 29.56 830 24.51 -6.5 20.3 94 -7.3 18.9 0
22:13 1001 29.56 830 24.51 -6.5 20.2 94 -7.3 18.8 0
22:14 1001 29.56 830 24.51 -6.5 20.2 94 -7.3 18.8 0
22:15 1001 29.56 830 24.51 -6.6 20.2 94 -7.4 18.7 0
22:16 1001 29.56 830 24.51 -6.6 20 94 -7.5 18.5 0
22:17 1001 29.56 830 24.51 -6.8 19.8 94 -7.6 18.3 0
22:18 1001 29.56 830 24.51 -6.8 19.8 94 -7.6 18.3 0
22:19 1001 29.56 830 24.51 -6.9 19.6 94 -7.7 18.1 0
22:20 1001 29.56 830 24.51 -6.9 19.6 94 -7.8 18 0
22:21 1001 29.56 830 24.51 -7 19.4 94 -7.8 17.9 0
22:22 1001 29.56 830 24.51 -7.1 19.3 94 -7.9 17.8 0
22:23 1001 29.56 830 24.51 -7.1 19.2 94 -7.9 17.7 0
22:24 1001 29.56 830 24.51 -7.2 19.1 94 -8 17.5 0
22:25 1001 29.56 830 24.51 -7.2 19 94 -8.1 17.5 0
22:26 1001 29.56 830 24.51 -7.3 19 94 -8.1 17.4 0
22:27 1001 29.56 830 24.51 -7.3 18.9 94 -8.1 17.4 0
22:28 1001 29.56 830 24.51 -7.3 18.8 94 -8.2 17.3 0
22:29 1001 29.56 830 24.51 -7.4 18.7 94 -8.2 17.2 0
22:30 1001 29.56 830 24.51 -7.4 18.7 94 -8.2 17.2 0
22:31 1001 29.56 830 24.51 -7.4 18.6 94 -8.3 17.1 0
22:32 1001 29.56 830 24.51 -7.5 18.6 94 -8.3 17.1 0
22:33 1001 29.56 830 24.51 -7.5 18.6 94 -8.3 17.1 0
22:34 1001 29.56 830 24.51 -7.5 18.5 94 -8.3 17 0
22:35 1001 29.56 830 24.51 -7.5 18.5 94 -8.3 17 0
22:36 1001 29.56 830 24.51 -7.5 18.4 94 -8.4 16.9 0
22:37 1001 29.56 830 24.51 -7.5 18.4 94 -8.4 16.9 0
22:38 1001 29.56 831 24.54 -7.6 18.4 94 -8.4 16.8 0
22:39 1001 29.56 831 24.54 -7.6 18.3 94 -8.5 16.8 0
22:40 1001 29.56 831 24.54 -7.6 18.3 94 -8.5 16.7 0
22:41 1001 29.56 831 24.54 -7.7 18.2 94 -8.5 16.7 0
22:42 1001 29.56 831 24.54 -7.7 18.2 94 -8.5 16.6 0
22:43 1001 29.56 831 24.54 -7.7 18.2 94 -8.6 16.6 0
22:44 1001 29.56 831 24.54 -7.7 18.1 94 -8.6 16.6 0
22:45 1002 29.59 831 24.54 -7.7 18.2 94 -8.5 16.6 0
22:46 1002 29.59 831 24.54 -7.7 18.1 94 -8.6 16.5 0
22:47 1001 29.56 831 24.54 -7.8 18.1 94 -8.6 16.5 0
22:48 1002 29.59 831 24.54 -7.8 18 93 -8.7 16.4 0
22:49 1002 29.59 831 24.54 -7.8 18 94 -8.7 16.4 0
22:50 1002 29.59 831 24.54 -7.8 17.9 93 -8.7 16.3 0
22:51 1002 29.59 831 24.54 -7.8 17.9 94 -8.7 16.3 0
22:52 1002 29.59 831 24.54 -7.8 17.9 93 -8.7 16.3 0
22:53 1002 29.59 831 24.54 -7.9 17.8 93 -8.8 16.2 0
22:54 1002 29.59 831 24.54 -7.9 17.8 93 -8.8 16.2 0
22:55 1002 29.59 831 24.54 -7.9 17.8 93 -8.8 16.2 0
22:56 1002 29.59 831 24.54 -7.9 17.7 93 -8.8 16.2 0
22:57 1002 29.59 831 24.54 -7.9 17.7 93 -8.8 16.1 0
22:58 1002 29.59 831 24.54 -8 17.7 93 -8.9 16.1 0
22:59 1002 29.59 831 24.54 -7.9 17.7 93 -8.9 16.1 0
23:00 1002 29.59 831 24.54 -8 17.7 93 -8.9 16 0
23:01 1002 29.59 831 24.54 -8 17.6 93 -8.9 16 0
23:02 1002 29.59 831 24.54 -8 17.6 93 -8.9 15.9 0
23:03 1002 29.59 831 24.54 -8.1 17.5 93 -9 15.8 0
23:04 1002 29.59 831 24.54 -8.1 17.5 93 -9 15.8 0
23:05 1002 29.59 831 24.54 -8.1 17.4 93 -9 15.8 0
23:06 1002 29.59 831 24.54 -8.1 17.4 93 -9 15.8 0
23:07 1002 29.59 831 24.54 -8.1 17.4 93 -9 15.7 0
23:08 1002 29.59 831 24.54 -8.2 17.3 93 -9.1 15.7 0
23:09 1002 29.59 831 24.54 -8.2 17.3 93 -9.1 15.6 0
23:10 1002 29.59 831 24.54 -8.2 17.3 93 -9.1 15.6 0
23:11 1002 29.59 831 24.54 -8.2 17.2 93 -9.1 15.5 0
23:12 1002 29.59 831 24.54 -8.2 17.2 93 -9.2 15.5 0
23:13 1002 29.59 832 24.57 -8.3 17.1 93 -9.2 15.4 0
23:14 1002 29.59 832 24.57 -8.3 17 93 -9.2 15.4 0
23:15 1002 29.59 832 24.57 -8.3 17.1 93 -9.2 15.4 0
23:16 1002 29.59 832 24.57 -8.3 17 93 -9.2 15.4 0
23:17 1002 29.59 832 24.57 -8.3 17 93 -9.2 15.4 0
23:18 1002 29.59 832 24.57 -8.3 17 93 -9.3 15.3 0
23:19 1002 29.59 832 24.57 -8.3 17 93 -9.3 15.3 0
23:20 1002 29.59 832 24.57 -8.4 16.9 93 -9.3 15.3 0
23:21 1002 29.59 832 24.57 -8.4 16.9 93 -9.3 15.3 0
23:22 1002 29.59 832 24.57 -8.4 16.9 93 -9.3 15.2 0
23:23 1002 29.59 832 24.57 -8.4 16.9 93 -9.3 15.2 0
23:24 1003 29.62 832 24.57 -8.4 16.9 93 -9.3 15.2 0
23:25 1002 29.59 832 24.57 -8.4 16.9 93 -9.3 15.2 0
23:26 1002 29.59 832 24.57 -8.4 16.8 93 -9.4 15.2 0
23:27 1002 29.59 832 24.57 -8.4 16.8 93 -9.3 15.2 0
23:28 1003 29.62 832 24.57 -8.4 16.8 93 -9.4 15.2 0
23:29 1003 29.62 832 24.57 -8.4 16.8 93 -9.3 15.2 0
23:30 1003 29.62 832 24.57 -8.5 16.8 93 -9.4 15.1 0
23:31 1003 29.62 832 24.57 -8.5 16.8 93 -9.4 15.1 0
23:32 1003 29.62 832 24.57 -8.5 16.8 93 -9.4 15.1 0
23:33 1003 29.62 832 24.57 -8.5 16.8 93 -9.4 15.1 0
23:34 1003 29.62 832 24.57 -8.5 16.7 93 -9.4 15.1 0
23:35 1003 29.62 832 24.57 -8.5 16.7 93 -9.4 15 0
23:36 1003 29.62 832 24.57 -8.5 16.7 93 -9.4 15 0
23:37 1003 29.62 832 24.57 -8.5 16.7 93 -9.4 15 0
23:38 1003 29.62 832 24.57 -8.5 16.7 93 -9.4 15 0
23:39 1003 29.62 832 24.57 -8.5 16.7 93 -9.4 15 0
23:40 1003 29.62 832 24.57 -8.5 16.6 93 -9.5 15 0
23:41 1003 29.62 832 24.57 -8.6 16.6 93 -9.5 14.9 0
23:42 1003 29.62 832 24.57 -8.6 16.6 93 -9.5 14.9 0
23:43 1003 29.62 832 24.57 -8.6 16.6 93 -9.5 14.9 0
23:44 1003 29.62 832 24.57 -8.6 16.5 93 -9.5 14.8 0
23:45 1003 29.62 832 24.57 -8.6 16.5 93 -9.6 14.8 0
23:46 1003 29.62 832 24.57 -8.6 16.4 93 -9.6 14.7 0
23:47 1003 29.62 832 24.57 -8.7 16.4 93 -9.6 14.7 0
23:48 1003 29.62 832 24.57 -8.6 16.5 93 -9.6 14.8 0
23:49 1003 29.62 832 24.57 -8.7 16.4 93 -9.6 14.7 0
23:50 1003 29.62 832 24.57 -8.7 16.4 93 -9.6 14.7 0
23:51 1003 29.62 832 24.57 -8.6 16.4 93 -9.6 14.7 0
23:52 1003 29.62 832 24.57 -8.7 16.4 93 -9.7 14.6 0
23:53 1003 29.62 832 24.57 -8.7 16.4 93 -9.6 14.7 0
23:54 1003 29.62 832 24.57 -8.7 16.4 93 -9.6 14.7 0
23:55 1003 29.62 832 24.57 -8.7 16.3 93 -9.6 14.6 0
23:56 1003 29.62 832 24.57 -8.7 16.3 93 -9.7 14.6 0
23:57 1003 29.62 832 24.57 -8.7 16.4 93 -9.7 14.6 0
23:58 1003 29.62 832 24.57 -8.7 16.3 93 -9.7 14.6 0
23:59 1003 29.62 832 24.57 -8.7 16.4 93 -9.7 14.6 0
24:00 1003 29.62 832 24.57 -8.7 16.3 93 -9.7 14.6 0